Observation data for Tahoka on 05/23/2019      Previous  Date  Next       Current Mesonet Observations  Soil Data  Daily Summary Page  Observations in Plain Language
KTAS 230500Z 14010KT 22/18 A2982 RMK A01 T02180178  RH  078%=      5-min Rain = 0
KTAS 230501Z 14011KT 22/18 A2982 RMK A01 T02180179  RH  078%=      5-min Rain = 0
KTAS 230502Z 14011KT 22/18 A2982 RMK A01 T02180179  RH  078%=      5-min Rain = 0
KTAS 230503Z 14011KT 22/18 A2982 RMK A01 T02190180  RH  078%=      5-min Rain = 0
KTAS 230504Z 14011KT 22/18 A2982 RMK A01 T02200180  RH  078%=      5-min Rain = 0
KTAS 230505Z 14012KT 22/18 A2982 RMK A01 T02200180  RH  078%=      5-min Rain = 0
KTAS 230506Z 14012KT 22/18 A2982 RMK A01 T02210180  RH  078%=      5-min Rain = 0
KTAS 230507Z 14012KT 22/18 A2982 RMK A01 T02210180  RH  078%=      5-min Rain = 0
KTAS 230508Z 14012KT 22/18 A2982 RMK A01 T02210180  RH  078%=      5-min Rain = 0
KTAS 230509Z 14012KT 22/18 A2982 RMK A01 T02210181  RH  078%=      5-min Rain = 0
KTAS 230510Z 14012KT 22/18 A2982 RMK A01 T02210181  RH  078%=      5-min Rain = 0
KTAS 230511Z 14011KT 22/18 A2982 RMK A01 T02220181  RH  078%=      5-min Rain = 0
KTAS 230512Z 14011KT 22/18 A2982 RMK A01 T02220181  RH  078%=      5-min Rain = 0
KTAS 230513Z 14011KT 22/18 A2982 RMK A01 T02220182  RH  078%=      5-min Rain = 0
KTAS 230514Z 13011KT 22/18 A2982 RMK A01 T02220182  RH  078%=      5-min Rain = 0
KTAS 230515Z 13010KT 22/18 A2982 RMK A01 T02210182  RH  078%=      5-min Rain = 0
KTAS 230516Z 14009KT 22/18 A2982 RMK A01 T02200182  RH  079%=      5-min Rain = 0
KTAS 230517Z 13010KT 22/18 A2982 RMK A01 T02200182  RH  079%=      5-min Rain = 0
KTAS 230518Z 13011KT 22/18 A2982 RMK A01 T02190181  RH  079%=      5-min Rain = 0
KTAS 230519Z 13009KT 22/18 A2982 RMK A01 T02190181  RH  079%=      5-min Rain = 0
KTAS 230520Z 13011KT 22/18 A2982 RMK A01 T02180181  RH  080%=      5-min Rain = 0
KTAS 230521Z 13010KT 22/18 A2982 RMK A01 T02180181  RH  080%=      5-min Rain = 0
KTAS 230522Z 13010KT 22/18 A2982 RMK A01 T02170181  RH  080%=      5-min Rain = 0
KTAS 230523Z 14010KT 22/18 A2982 RMK A01 T02170181  RH  080%=      5-min Rain = 0
KTAS 230524Z 13010KT 22/18 A2982 RMK A01 T02160181  RH  080%=      5-min Rain = 0
KTAS 230525Z 13010KT 22/18 A2982 RMK A01 T02160181  RH  081%=      5-min Rain = 0
KTAS 230526Z 13011KT 22/18 A2982 RMK A01 T02160181  RH  081%=      5-min Rain = 0
KTAS 230527Z 13011KT 22/18 A2982 RMK A01 T02160182  RH  081%=      5-min Rain = 0
KTAS 230528Z 13011KT 22/18 A2982 RMK A01 T02160182  RH  081%=      5-min Rain = 0
KTAS 230529Z 13010KT 22/18 A2982 RMK A01 T02160182  RH  081%=      5-min Rain = 0
KTAS 230530Z 13010KT 22/18 A2982 RMK A01 T02150182  RH  081%=      5-min Rain = 0
KTAS 230531Z 13010KT 22/18 A2982 RMK A01 T02150182  RH  081%=      5-min Rain = 0
KTAS 230532Z 13010KT 22/18 A2982 RMK A01 T02150182  RH  082%=      5-min Rain = 0
KTAS 230533Z 13010KT 21/18 A2982 RMK A01 T02140182  RH  082%=      5-min Rain = 0
KTAS 230534Z 13010KT 21/18 A2982 RMK A01 T02140183  RH  082%=      5-min Rain = 0
KTAS 230535Z 13008KT 21/18 A2982 RMK A01 T02140182  RH  082%=      5-min Rain = 0
KTAS 230536Z 13010KT 21/18 A2982 RMK A01 T02130182  RH  083%=      5-min Rain = 0
KTAS 230537Z 13009KT 21/18 A2982 RMK A01 T02120182  RH  083%=      5-min Rain = 0
KTAS 230538Z 13009KT 21/18 A2982 RMK A01 T02120183  RH  083%=      5-min Rain = 0
KTAS 230539Z 13010KT 21/18 A2982 RMK A01 T02120183  RH  083%=      5-min Rain = 0
KTAS 230540Z 13010KT 21/18 A2982 RMK A01 T02120183  RH  083%=      5-min Rain = 0
KTAS 230541Z 13010KT 21/18 A2982 RMK A01 T02120184  RH  084%=      5-min Rain = 0
KTAS 230542Z 13010KT 21/18 A2982 RMK A01 T02130184  RH  083%=      5-min Rain = 0
KTAS 230543Z 13010KT 21/18 A2982 RMK A01 T02130184  RH  084%=      5-min Rain = 0
KTAS 230544Z 13010KT 21/18 A2982 RMK A01 T02130184  RH  084%=      5-min Rain = 0
KTAS 230545Z 14011KT 21/18 A2982 RMK A01 T02130184  RH  084%=      5-min Rain = 0
KTAS 230546Z 13010KT 21/18 A2982 RMK A01 T02130184  RH  084%=      5-min Rain = 0
KTAS 230547Z 13011KT 21/19 A2982 RMK A01 T02140185  RH  084%=      5-min Rain = 0
KTAS 230548Z 13011KT 21/19 A2982 RMK A01 T02140185  RH  084%=      5-min Rain = 0
KTAS 230549Z 14010KT 21/19 A2982 RMK A01 T02140185  RH  084%=      5-min Rain = 0
KTAS 230550Z 14009KT 21/19 A2982 RMK A01 T02140185  RH  084%=      5-min Rain = 0
KTAS 230551Z 14010KT 21/19 A2982 RMK A01 T02140185  RH  084%=      5-min Rain = 0
KTAS 230552Z 14010KT 21/19 A2982 RMK A01 T02140185  RH  084%=      5-min Rain = 0
KTAS 230553Z 14010KT 21/19 A2982 RMK A01 T02140185  RH  084%=      5-min Rain = 0
KTAS 230554Z 13010KT 21/19 A2982 RMK A01 T02130185  RH  084%=      5-min Rain = 0
KTAS 230555Z 14011KT 21/19 A2982 RMK A01 T02130186  RH  084%=      5-min Rain = 0
KTAS 230556Z 14010KT 21/19 A2982 RMK A01 T02130186  RH  084%=      5-min Rain = 0
KTAS 230557Z 14010KT 21/19 A2982 RMK A01 T02130186  RH  085%=      5-min Rain = 0
KTAS 230558Z 14010KT 21/19 A2982 RMK A01 T02130186  RH  085%=      5-min Rain = 0
KTAS 230559Z 14010KT 21/19 A2982 RMK A01 T02130186  RH  085%=      5-min Rain = 0
KTAS 230600Z 14011KT 21/19 A2982 RMK A01 T02130187  RH  085%=      5-min Rain = 0
KTAS 230601Z 14010KT 21/19 A2982 RMK A01 T02140187  RH  085%=      5-min Rain = 0
KTAS 230602Z 14011KT 21/19 A2982 RMK A01 T02130187  RH  085%=      5-min Rain = 0
KTAS 230603Z 14010KT 21/19 A2982 RMK A01 T02130187  RH  085%=      5-min Rain = 0
KTAS 230604Z 13010G15KT 21/19 A2982 RMK A01 T02130187  RH  085%=      5-min Rain = 0
KTAS 230605Z 14011KT 21/19 A2982 RMK A01 T02130187  RH  085%=      5-min Rain = 0
KTAS 230606Z 13011KT 21/19 A2982 RMK A01 T02140188  RH  085%=      5-min Rain = 0
KTAS 230607Z 14010KT 21/19 A2982 RMK A01 T02140188  RH  085%=      5-min Rain = 0
KTAS 230608Z 13011KT 21/19 A2982 RMK A01 T02140188  RH  085%=      5-min Rain = 0
KTAS 230609Z 14010KT 21/19 A2982 RMK A01 T02140187  RH  085%=      5-min Rain = 0
KTAS 230610Z 13010KT 21/19 A2982 RMK A01 T02140187  RH  085%=      5-min Rain = 0
KTAS 230611Z 13010KT 21/19 A2982 RMK A01 T02140188  RH  085%=      5-min Rain = 0
KTAS 230612Z 13010KT 21/19 A2982 RMK A01 T02140188  RH  085%=      5-min Rain = 0
KTAS 230613Z 13011KT 21/19 A2982 RMK A01 T02140188  RH  085%=      5-min Rain = 0
KTAS 230614Z 13012KT 21/19 A2982 RMK A01 T02140188  RH  085%=      5-min Rain = 0
KTAS 230615Z 14010KT 21/19 A2982 RMK A01 T02140188  RH  085%=      5-min Rain = 0
KTAS 230616Z 13011KT 21/19 A2982 RMK A01 T02140189  RH  085%=      5-min Rain = 0
KTAS 230617Z 13011KT 21/19 A2982 RMK A01 T02140188  RH  085%=      5-min Rain = 0
KTAS 230618Z 13010KT 22/19 A2982 RMK A01 T02150189  RH  085%=      5-min Rain = 0
KTAS 230619Z 13011KT 22/19 A2982 RMK A01 T02150189  RH  085%=      5-min Rain = 0
KTAS 230620Z 13012KT 21/19 A2982 RMK A01 T02140189  RH  085%=      5-min Rain = 0
KTAS 230621Z 13011KT 21/19 A2982 RMK A01 T02140189  RH  085%=      5-min Rain = 0
KTAS 230622Z 13011KT 21/19 A2982 RMK A01 T02140189  RH  086%=      5-min Rain = 0
KTAS 230623Z 13011KT 21/19 A2982 RMK A01 T02140189  RH  086%=      5-min Rain = 0
KTAS 230624Z 13012KT 21/19 A2982 RMK A01 T02140189  RH  086%=      5-min Rain = 0
KTAS 230625Z 13011KT 21/19 A2982 RMK A01 T02140189  RH  086%=      5-min Rain = 0
KTAS 230626Z 13011KT 21/19 A2982 RMK A01 T02140189  RH  086%=      5-min Rain = 0
KTAS 230627Z 13010KT 21/19 A2982 RMK A01 T02140189  RH  086%=      5-min Rain = 0
KTAS 230628Z 13012KT 21/19 A2982 RMK A01 T02130190  RH  086%=      5-min Rain = 0
KTAS 230629Z 13012KT 21/19 A2982 RMK A01 T02140190  RH  086%=      5-min Rain = 0
KTAS 230630Z 13011KT 21/19 A2982 RMK A01 T02140190  RH  086%=      5-min Rain = 0
KTAS 230631Z 13012KT 21/19 A2982 RMK A01 T02140190  RH  086%=      5-min Rain = 0
KTAS 230632Z 13011KT 21/19 A2982 RMK A01 T02140190  RH  086%=      5-min Rain = 0
KTAS 230633Z 13011KT 21/19 A2982 RMK A01 T02140190  RH  086%=      5-min Rain = 0
KTAS 230634Z 13012KT 21/19 A2982 RMK A01 T02130190  RH  087%=      5-min Rain = 0
KTAS 230635Z 13012KT 21/19 A2982 RMK A01 T02130190  RH  087%=      5-min Rain = 0
KTAS 230636Z 13013KT 21/19 A2982 RMK A01 T02130190  RH  087%=      5-min Rain = 0
KTAS 230637Z 13011KT 21/19 A2982 RMK A01 T02130190  RH  087%=      5-min Rain = 0
KTAS 230638Z 13013KT 21/19 A2982 RMK A01 T02130190  RH  087%=      5-min Rain = 0
KTAS 230639Z 13013KT 21/19 A2982 RMK A01 T02120190  RH  087%=      5-min Rain = 0
KTAS 230640Z 13012KT 21/19 A2982 RMK A01 T02130191  RH  087%=      5-min Rain = 0
KTAS 230641Z 13012KT 21/19 A2982 RMK A01 T02130191  RH  087%=      5-min Rain = 0
KTAS 230642Z 13011KT 21/19 A2982 RMK A01 T02130191  RH  087%=      5-min Rain = 0
KTAS 230643Z 13011KT 21/19 A2982 RMK A01 T02120191  RH  087%=      5-min Rain = 0
KTAS 230644Z 13011KT 21/19 A2982 RMK A01 T02120190  RH  088%=      5-min Rain = 0
KTAS 230645Z 13012KT 21/19 A2982 RMK A01 T02120191  RH  088%=      5-min Rain = 0
KTAS 230646Z 13011KT 21/19 A2982 RMK A01 T02120191  RH  088%=      5-min Rain = 0
KTAS 230647Z 13012KT 21/19 A2982 RMK A01 T02120191  RH  088%=      5-min Rain = 0
KTAS 230648Z 13012KT 21/19 A2982 RMK A01 T02120191  RH  088%=      5-min Rain = 0
KTAS 230649Z 13011KT 21/19 A2982 RMK A01 T02120191  RH  088%=      5-min Rain = 0
KTAS 230650Z 13010KT 21/19 A2982 RMK A01 T02120191  RH  088%=      5-min Rain = 0
KTAS 230651Z 13010KT 21/19 A2982 RMK A01 T02110191  RH  088%=      5-min Rain = 0
KTAS 230652Z 13011KT 21/19 A2982 RMK A01 T02110191  RH  088%=      5-min Rain = 0
KTAS 230653Z 13012KT 21/19 A2982 RMK A01 T02110191  RH  088%=      5-min Rain = 0
KTAS 230654Z 13012KT 21/19 A2982 RMK A01 T02110191  RH  088%=      5-min Rain = 0
KTAS 230655Z 13011KT 21/19 A2982 RMK A01 T02110191  RH  088%=      5-min Rain = 0
KTAS 230656Z 13013KT 21/19 A2982 RMK A01 T02110191  RH  088%=      5-min Rain = 0
KTAS 230657Z 13011KT 21/19 A2982 RMK A01 T02110191  RH  088%=      5-min Rain = 0
KTAS 230658Z 13011KT 21/19 A2982 RMK A01 T02100191  RH  089%=      5-min Rain = 0
KTAS 230659Z 13011KT 21/19 A2982 RMK A01 T02100191  RH  089%=      5-min Rain = 0
KTAS 230700Z 13011KT 21/19 A2982 RMK A01 T02100191  RH  089%=      5-min Rain = 0
KTAS 230701Z 13011KT 21/19 A2982 RMK A01 T02090191  RH  089%=      5-min Rain = 0
KTAS 230702Z 13012KT 21/19 A2982 RMK A01 T02090191  RH  089%=      5-min Rain = 0
KTAS 230703Z 13011KT 21/19 A2982 RMK A01 T02100191  RH  089%=      5-min Rain = 0
KTAS 230704Z 13013KT 21/19 A2982 RMK A01 T02100191  RH  089%=      5-min Rain = 0
KTAS 230705Z 13012KT 21/19 A2982 RMK A01 T02100191  RH  089%=      5-min Rain = 0
KTAS 230706Z 13012KT 21/19 A2982 RMK A01 T02090191  RH  089%=      5-min Rain = 0
KTAS 230707Z 13012KT 21/19 A2982 RMK A01 T02090191  RH  089%=      5-min Rain = 0
KTAS 230708Z 13012KT 21/19 A2982 RMK A01 T02080191  RH  090%=      5-min Rain = 0
KTAS 230709Z 13012KT 21/19 A2982 RMK A01 T02080191  RH  090%=      5-min Rain = 0
KTAS 230710Z 13012KT 21/19 A2982 RMK A01 T02080191  RH  090%=      5-min Rain = 0
KTAS 230711Z 13012KT 21/19 A2982 RMK A01 T02080191  RH  090%=      5-min Rain = 0
KTAS 230712Z 13012KT 21/19 A2982 RMK A01 T02080191  RH  090%=      5-min Rain = 0
KTAS 230713Z 13011KT 21/19 A2982 RMK A01 T02080191  RH  090%=      5-min Rain = 0
KTAS 230714Z 13012KT 21/19 A2982 RMK A01 T02090192  RH  090%=      5-min Rain = 0
KTAS 230715Z 14012KT 21/19 A2982 RMK A01 T02090192  RH  090%=      5-min Rain = 0
KTAS 230716Z 13012KT 21/19 A2982 RMK A01 T02100192  RH  090%=      5-min Rain = 0
KTAS 230717Z 14011KT 21/19 A2982 RMK A01 T02100192  RH  090%=      5-min Rain = 0
KTAS 230718Z 13012KT 21/19 A2982 RMK A01 T02100193  RH  090%=      5-min Rain = 0
KTAS 230719Z 13012KT 21/19 A2982 RMK A01 T02110193  RH  089%=      5-min Rain = 0
KTAS 230720Z 13012KT 21/19 A2982 RMK A01 T02110193  RH  089%=      5-min Rain = 0
KTAS 230721Z 13012KT 21/19 A2982 RMK A01 T02110193  RH  089%=      5-min Rain = 0
KTAS 230722Z 13011KT 21/19 A2982 RMK A01 T02110193  RH  089%=      5-min Rain = 0
KTAS 230723Z 13011KT 21/19 A2982 RMK A01 T02110193  RH  089%=      5-min Rain = 0
KTAS 230724Z 13011KT 21/19 A2982 RMK A01 T02110193  RH  089%=      5-min Rain = 0
KTAS 230725Z 13011KT 21/19 A2982 RMK A01 T02110193  RH  090%=      5-min Rain = 0
KTAS 230726Z 13011KT 21/19 A2982 RMK A01 T02110193  RH  090%=      5-min Rain = 0
KTAS 230727Z 13013KT 21/19 A2982 RMK A01 T02110193  RH  090%=      5-min Rain = 0
KTAS 230728Z 13011KT 21/19 A2982 RMK A01 T02110193  RH  090%=      5-min Rain = 0
KTAS 230729Z 13013KT 21/19 A2982 RMK A01 T02120194  RH  090%=      5-min Rain = 0
KTAS 230730Z 13013KT 21/19 A2982 RMK A01 T02120194  RH  090%=      5-min Rain = 0
KTAS 230731Z 13013KT 21/19 A2982 RMK A01 T02120194  RH  089%=      5-min Rain = 0
KTAS 230732Z 14013KT 21/19 A2983 RMK A01 T02120194  RH  089%=      5-min Rain = 0
KTAS 230733Z 14013KT 21/19 A2983 RMK A01 T02120194  RH  089%=      5-min Rain = 0
KTAS 230734Z 13011KT 21/19 A2983 RMK A01 T02120194  RH  089%=      5-min Rain = 0
KTAS 230735Z 13012KT 21/19 A2983 RMK A01 T02120194  RH  089%=      5-min Rain = 0
KTAS 230736Z 13011KT 21/19 A2983 RMK A01 T02120194  RH  089%=      5-min Rain = 0
KTAS 230737Z 13011KT 21/19 A2983 RMK A01 T02120194  RH  089%=      5-min Rain = 0
KTAS 230738Z 14012KT 21/19 A2983 RMK A01 T02120194  RH  089%=      5-min Rain = 0
KTAS 230739Z 14011KT 21/19 A2983 RMK A01 T02120194  RH  089%=      5-min Rain = 0
KTAS 230740Z 13010KT 21/20 A2983 RMK A01 T02120195  RH  090%=      5-min Rain = 0
KTAS 230741Z 14011KT 21/20 A2983 RMK A01 T02130195  RH  089%=      5-min Rain = 0
KTAS 230742Z 14013KT 21/20 A2983 RMK A01 T02130195  RH  089%=      5-min Rain = 0
KTAS 230743Z 13013KT 21/20 A2983 RMK A01 T02130195  RH  089%=      5-min Rain = 0
KTAS 230744Z 13012KT 21/20 A2983 RMK A01 T02140195  RH  089%=      5-min Rain = 0
KTAS 230745Z 14012KT 21/20 A2983 RMK A01 T02140195  RH  089%=      5-min Rain = 0
KTAS 230746Z 14009KT 21/20 A2983 RMK A01 T02140195  RH  089%=      5-min Rain = 0
KTAS 230747Z 14012KT 21/20 A2983 RMK A01 T02140196  RH  089%=      5-min Rain = 0
KTAS 230748Z 14011KT 21/20 A2983 RMK A01 T02140196  RH  089%=      5-min Rain = 0
KTAS 230749Z 14011KT 21/20 A2983 RMK A01 T02140196  RH  089%=      5-min Rain = 0
KTAS 230750Z 14011KT 21/20 A2983 RMK A01 T02140196  RH  089%=      5-min Rain = 0
KTAS 230751Z 14012KT 21/20 A2983 RMK A01 T02140196  RH  089%=      5-min Rain = 0
KTAS 230752Z 14009KT 22/20 A2983 RMK A01 T02150197  RH  089%=      5-min Rain = 0
KTAS 230753Z 14012KT 22/20 A2983 RMK A01 T02150197  RH  089%=      5-min Rain = 0
KTAS 230754Z 14011KT 22/20 A2983 RMK A01 T02150197  RH  089%=      5-min Rain = 0
KTAS 230755Z 14010KT 22/20 A2983 RMK A01 T02160197  RH  089%=      5-min Rain = 0
KTAS 230756Z 14011KT 22/20 A2983 RMK A01 T02160197  RH  089%=      5-min Rain = 0
KTAS 230757Z 14013KT 22/20 A2983 RMK A01 T02160197  RH  089%=      5-min Rain = 0
KTAS 230758Z 14012KT 22/20 A2983 RMK A01 T02160197  RH  089%=      5-min Rain = 0
KTAS 230759Z 14012KT 22/20 A2983 RMK A01 T02160197  RH  089%=      5-min Rain = 0
KTAS 230800Z 14012KT 22/20 A2983 RMK A01 T02160197  RH  089%=      5-min Rain = 0
KTAS 230801Z 14011KT 22/20 A2983 RMK A01 T02160198  RH  089%=      5-min Rain = 0
KTAS 230802Z 14011KT 22/20 A2983 RMK A01 T02160198  RH  089%=      5-min Rain = 0
KTAS 230803Z 14012KT 22/20 A2983 RMK A01 T02160198  RH  089%=      5-min Rain = 0
KTAS 230804Z 14011KT 22/20 A2983 RMK A01 T02170198  RH  089%=      5-min Rain = 0
KTAS 230805Z 14011KT 22/20 A2983 RMK A01 T02170198  RH  089%=      5-min Rain = 0
KTAS 230806Z 14010KT 22/20 A2983 RMK A01 T02170198  RH  089%=      5-min Rain = 0
KTAS 230807Z 14012KT 22/20 A2983 RMK A01 T02170198  RH  089%=      5-min Rain = 0
KTAS 230808Z 15013KT 22/20 A2983 RMK A01 T02170198  RH  089%=      5-min Rain = 0
KTAS 230809Z 14011KT 22/20 A2983 RMK A01 T02180198  RH  089%=      5-min Rain = 0
KTAS 230810Z 14011KT 22/20 A2983 RMK A01 T02180198  RH  089%=      5-min Rain = 0
KTAS 230811Z 14011KT 22/20 A2983 RMK A01 T02180198  RH  089%=      5-min Rain = 0
KTAS 230812Z 15011KT 22/20 A2983 RMK A01 T02180198  RH  089%=      5-min Rain = 0
KTAS 230813Z 14011KT 22/20 A2983 RMK A01 T02180198  RH  089%=      5-min Rain = 0
KTAS 230814Z 14011KT 22/20 A2983 RMK A01 T02180198  RH  089%=      5-min Rain = 0
KTAS 230815Z 14013KT 22/20 A2983 RMK A01 T02180198  RH  089%=      5-min Rain = 0
KTAS 230816Z 14012KT 22/20 A2983 RMK A01 T02180199  RH  089%=      5-min Rain = 0
KTAS 230817Z 14012KT 22/20 A2983 RMK A01 T02180199  RH  089%=      5-min Rain = 0
KTAS 230818Z 14014G19KT 22/20 A2983 RMK A01 T02190199  RH  089%=      5-min Rain = 0
KTAS 230819Z 15013KT 22/20 A2983 RMK A01 T02190199  RH  088%=      5-min Rain = 0
KTAS 230820Z 15012KT 22/20 A2983 RMK A01 T02200199  RH  088%=      5-min Rain = 0
KTAS 230821Z 15014KT 22/20 A2983 RMK A01 T02200199  RH  088%=      5-min Rain = 0
KTAS 230822Z 15012KT 22/20 A2983 RMK A01 T02200199  RH  088%=      5-min Rain = 0
KTAS 230823Z 15013KT 22/20 A2983 RMK A01 T02200200  RH  088%=      5-min Rain = 0
KTAS 230824Z 15014KT 22/20 A2983 RMK A01 T02200200  RH  088%=      5-min Rain = 0
KTAS 230825Z 15011KT 22/20 A2983 RMK A01 T02200200  RH  088%=      5-min Rain = 0
KTAS 230826Z 15014KT 22/20 A2983 RMK A01 T02200200  RH  088%=      5-min Rain = 0
KTAS 230827Z 15012KT 22/20 A2983 RMK A01 T02200200  RH  088%=      5-min Rain = 0
KTAS 230828Z 15014KT 22/20 A2983 RMK A01 T02200200  RH  088%=      5-min Rain = 0
KTAS 230829Z 15012KT 22/20 A2983 RMK A01 T02200200  RH  088%=      5-min Rain = 0
KTAS 230830Z 15012KT 22/20 A2983 RMK A01 T02200200  RH  088%=      5-min Rain = 0
KTAS 230831Z 15012KT 22/20 A2983 RMK A01 T02200200  RH  088%=      5-min Rain = 0
KTAS 230832Z 15011KT 22/20 A2983 RMK A01 T02200200  RH  088%=      5-min Rain = 0
KTAS 230833Z 15014KT 22/20 A2983 RMK A01 T02200200  RH  088%=      5-min Rain = 0
KTAS 230834Z 15012KT 22/20 A2983 RMK A01 T02200200  RH  088%=      5-min Rain = 0
KTAS 230835Z 15013KT 22/20 A2983 RMK A01 T02200200  RH  088%=      5-min Rain = 0
KTAS 230836Z 15012KT 22/20 A2983 RMK A01 T02200200  RH  088%=      5-min Rain = 0
KTAS 230837Z 15014KT 22/20 A2983 RMK A01 T02200200  RH  089%=      5-min Rain = 0
KTAS 230838Z 14011KT 22/20 A2983 RMK A01 T02200200  RH  089%=      5-min Rain = 0
KTAS 230839Z 15012KT 22/20 A2983 RMK A01 T02200200  RH  089%=      5-min Rain = 0
KTAS 230840Z 14013KT 22/20 A2983 RMK A01 T02200200  RH  089%=      5-min Rain = 0
KTAS 230841Z 15014KT 22/20 A2983 RMK A01 T02190200  RH  089%=      5-min Rain = 0
KTAS 230842Z 15012KT 22/20 A2983 RMK A01 T02200200  RH  089%=      5-min Rain = 0
KTAS 230843Z 15012KT 22/20 A2983 RMK A01 T02200200  RH  089%=      5-min Rain = 0
KTAS 230844Z 15013KT 22/20 A2983 RMK A01 T02190200  RH  089%=      5-min Rain = 0
KTAS 230845Z 15013KT 22/20 A2983 RMK A01 T02200201  RH  089%=      5-min Rain = 0
KTAS 230846Z 15015KT 22/20 A2983 RMK A01 T02190200  RH  089%=      5-min Rain = 0
KTAS 230847Z 15013KT 22/20 A2983 RMK A01 T02200200  RH  089%=      5-min Rain = 0
KTAS 230848Z 15012G17KT 22/20 A2983 RMK A01 T02190200  RH  089%=      5-min Rain = 0
KTAS 230849Z 15015KT 22/20 A2983 RMK A01 T02190200  RH  089%=      5-min Rain = 0
KTAS 230850Z 15013KT 22/20 A2983 RMK A01 T02190200  RH  089%=      5-min Rain = 0
KTAS 230851Z 15014KT 22/20 A2983 RMK A01 T02190200  RH  089%=      5-min Rain = 0
KTAS 230852Z 15013KT 22/20 A2983 RMK A01 T02190200  RH  089%=      5-min Rain = 0
KTAS 230853Z 15014KT 22/20 A2983 RMK A01 T02190201  RH  089%=      5-min Rain = 0
KTAS 230854Z 15013KT 22/20 A2983 RMK A01 T02190201  RH  089%=      5-min Rain = 0
KTAS 230855Z 15011KT 22/20 A2983 RMK A01 T02180200  RH  089%=      5-min Rain = 0
KTAS 230856Z 15011KT 22/20 A2983 RMK A01 T02180200  RH  090%=      5-min Rain = 0
KTAS 230857Z 15014KT 22/20 A2982 RMK A01 T02180201  RH  090%=      5-min Rain = 0
KTAS 230858Z 15015KT 22/20 A2982 RMK A01 T02180201  RH  090%=      5-min Rain = 0
KTAS 230859Z 15013KT 22/20 A2982 RMK A01 T02180200  RH  090%=      5-min Rain = 0
KTAS 230900Z 15013KT 22/20 A2982 RMK A01 T02180201  RH  090%=      5-min Rain = 0
KTAS 230901Z 15012KT 22/20 A2982 RMK A01 T02180201  RH  090%=      5-min Rain = 0
KTAS 230902Z 15011KT 22/20 A2982 RMK A01 T02180200  RH  090%=      5-min Rain = 0
KTAS 230903Z 15011KT 22/20 A2982 RMK A01 T02170200  RH  090%=      5-min Rain = 0
KTAS 230904Z 15013KT 22/20 A2982 RMK A01 T02170200  RH  090%=      5-min Rain = 0
KTAS 230905Z 15013KT 22/20 A2982 RMK A01 T02170200  RH  090%=      5-min Rain = 0
KTAS 230906Z 15013KT 22/20 A2982 RMK A01 T02170201  RH  090%=      5-min Rain = 0
KTAS 230907Z 15014KT 22/20 A2982 RMK A01 T02170200  RH  090%=      5-min Rain = 0
KTAS 230908Z 15014KT 22/20 A2982 RMK A01 T02180201  RH  090%=      5-min Rain = 0
KTAS 230909Z 15011KT 22/20 A2982 RMK A01 T02180201  RH  090%=      5-min Rain = 0
KTAS 230910Z 15013KT 22/20 A2982 RMK A01 T02170200  RH  090%=      5-min Rain = 0
KTAS 230911Z 15014KT 22/20 A2982 RMK A01 T02170201  RH  090%=      5-min Rain = 0
KTAS 230912Z 15014KT 22/20 A2982 RMK A01 T02170200  RH  090%=      5-min Rain = 0
KTAS 230913Z 15013KT 22/20 A2982 RMK A01 T02170201  RH  090%=      5-min Rain = 0
KTAS 230914Z 15015KT 22/20 A2982 RMK A01 T02170201  RH  091%=      5-min Rain = 0
KTAS 230915Z 15014KT 22/20 A2982 RMK A01 T02170201  RH  091%=      5-min Rain = 0
KTAS 230916Z 15014KT 22/20 A2983 RMK A01 T02170201  RH  091%=      5-min Rain = 0
KTAS 230917Z 15013KT 22/20 A2983 RMK A01 T02170201  RH  091%=      5-min Rain = 0
KTAS 230918Z 15015KT 22/20 A2983 RMK A01 T02170201  RH  091%=      5-min Rain = 0
KTAS 230919Z 15012KT 22/20 A2983 RMK A01 T02170201  RH  091%=      5-min Rain = 0
KTAS 230920Z 16013KT 22/20 A2983 RMK A01 T02170201  RH  091%=      5-min Rain = 0
KTAS 230921Z 15013KT 22/20 A2983 RMK A01 T02170201  RH  091%=      5-min Rain = 0
KTAS 230922Z 16012KT 22/20 A2983 RMK A01 T02160201  RH  091%=      5-min Rain = 0
KTAS 230923Z 16013KT 22/20 A2983 RMK A01 T02170201  RH  091%=      5-min Rain = 0
KTAS 230924Z 16013KT 22/20 A2983 RMK A01 T02170201  RH  091%=      5-min Rain = 0
KTAS 230925Z 16012KT 22/20 A2983 RMK A01 T02170201  RH  091%=      5-min Rain = 0
KTAS 230926Z 16013KT 22/20 A2983 RMK A01 T02170201  RH  091%=      5-min Rain = 0
KTAS 230927Z 16012KT 22/20 A2983 RMK A01 T02170201  RH  091%=      5-min Rain = 0
KTAS 230928Z 16012KT 22/20 A2983 RMK A01 T02180201  RH  091%=      5-min Rain = 0
KTAS 230929Z 15010KT 22/20 A2983 RMK A01 T02180202  RH  091%=      5-min Rain = 0
KTAS 230930Z 16010KT 22/20 A2983 RMK A01 T02170201  RH  091%=      5-min Rain = 0
KTAS 230931Z 15011KT 22/20 A2983 RMK A01 T02170201  RH  091%=      5-min Rain = 0
KTAS 230932Z 15010KT 22/20 A2983 RMK A01 T02170201  RH  091%=      5-min Rain = 0
KTAS 230933Z 15011KT 22/20 A2983 RMK A01 T02170201  RH  091%=      5-min Rain = 0
KTAS 230934Z 16012KT 22/20 A2983 RMK A01 T02180202  RH  091%=      5-min Rain = 0
KTAS 230935Z 15011KT 22/20 A2983 RMK A01 T02180202  RH  091%=      5-min Rain = 0
KTAS 230936Z 15012KT 22/20 A2983 RMK A01 T02180201  RH  091%=      5-min Rain = 0
KTAS 230937Z 15012KT 22/20 A2983 RMK A01 T02180202  RH  091%=      5-min Rain = 0
KTAS 230938Z 15012KT 22/20 A2983 RMK A01 T02180202  RH  091%=      5-min Rain = 0
KTAS 230939Z 15012KT 22/20 A2983 RMK A01 T02180202  RH  091%=      5-min Rain = 0
KTAS 230940Z 15013KT 22/20 A2983 RMK A01 T02180202  RH  090%=      5-min Rain = 0
KTAS 230941Z 15013KT 22/20 A2983 RMK A01 T02180202  RH  090%=      5-min Rain = 0
KTAS 230942Z 15013KT 22/20 A2983 RMK A01 T02180202  RH  090%=      5-min Rain = 0
KTAS 230943Z 15012KT 22/20 A2983 RMK A01 T02180202  RH  090%=      5-min Rain = 0
KTAS 230944Z 15011KT 22/20 A2983 RMK A01 T02180202  RH  090%=      5-min Rain = 0
KTAS 230945Z 15013KT 22/20 A2983 RMK A01 T02180202  RH  091%=      5-min Rain = 0
KTAS 230946Z 16011KT 22/20 A2983 RMK A01 T02180201  RH  091%=      5-min Rain = 0
KTAS 230947Z 16012KT 22/20 A2983 RMK A01 T02180201  RH  091%=      5-min Rain = 0
KTAS 230948Z 16011KT 22/20 A2983 RMK A01 T02180202  RH  091%=      5-min Rain = 0
KTAS 230949Z 16010KT 22/20 A2983 RMK A01 T02180202  RH  091%=      5-min Rain = 0
KTAS 230950Z 16011KT 22/20 A2983 RMK A01 T02180201  RH  091%=      5-min Rain = 0
KTAS 230951Z 16012KT 22/20 A2983 RMK A01 T02180202  RH  091%=      5-min Rain = 0
KTAS 230952Z 16010KT 22/20 A2984 RMK A01 T02180202  RH  090%=      5-min Rain = 0
KTAS 230953Z 16010KT 22/20 A2984 RMK A01 T02180202  RH  090%=      5-min Rain = 0
KTAS 230954Z 16010KT 22/20 A2984 RMK A01 T02180202  RH  090%=      5-min Rain = 0
KTAS 230955Z 16011KT 22/20 A2984 RMK A01 T02180202  RH  090%=      5-min Rain = 0
KTAS 230956Z 16012KT 22/20 A2984 RMK A01 T02180202  RH  090%=      5-min Rain = 0
KTAS 230957Z 17012KT 22/20 A2984 RMK A01 T02190202  RH  090%=      5-min Rain = 0
KTAS 230958Z 17011KT 22/20 A2984 RMK A01 T02190202  RH  090%=      5-min Rain = 0
KTAS 230959Z 17011KT 22/20 A2984 RMK A01 T02190202  RH  090%=      5-min Rain = 0
KTAS 231000Z 17012KT 22/20 A2984 RMK A01 T02200202  RH  090%=      5-min Rain = 0
KTAS 231001Z 17012KT 22/20 A2984 RMK A01 T02200202  RH  090%=      5-min Rain = 0
KTAS 231002Z 17010KT 22/20 A2984 RMK A01 T02200202  RH  090%=      5-min Rain = 0
KTAS 231003Z 17011KT 22/20 A2984 RMK A01 T02200202  RH  090%=      5-min Rain = 0
KTAS 231004Z 17011KT 22/20 A2984 RMK A01 T02190202  RH  090%=      5-min Rain = 0
KTAS 231005Z 17011KT 22/20 A2984 RMK A01 T02200202  RH  090%=      5-min Rain = 0
KTAS 231006Z 17010KT 22/20 A2984 RMK A01 T02190202  RH  090%=      5-min Rain = 0
KTAS 231007Z 18010KT 22/20 A2984 RMK A01 T02200202  RH  090%=      5-min Rain = 0
KTAS 231008Z 18010KT 22/20 A2985 RMK A01 T02200202  RH  090%=      5-min Rain = 0
KTAS 231009Z 18009KT 22/20 A2985 RMK A01 T02200202  RH  090%=      5-min Rain = 0
KTAS 231010Z 18010KT 22/20 A2985 RMK A01 T02200202  RH  090%=      5-min Rain = 0
KTAS 231011Z 18011KT 22/20 A2985 RMK A01 T02200202  RH  090%=      5-min Rain = 0
KTAS 231012Z 18012KT 22/20 A2985 RMK A01 T02200202  RH  089%=      5-min Rain = 0
KTAS 231013Z 18013G18KT 22/20 A2985 RMK A01 T02200201  RH  089%=      5-min Rain = 0
KTAS 231014Z 18012KT 22/20 A2985 RMK A01 T02210201  RH  088%=      5-min Rain = 0
KTAS 231015Z 19012KT 22/20 A2985 RMK A01 T02220201  RH  088%=      5-min Rain = 0
KTAS 231016Z 19012KT 22/20 A2986 RMK A01 T02220201  RH  088%=      5-min Rain = 0
KTAS 231017Z 18012KT 22/20 A2986 RMK A01 T02220200  RH  087%=      5-min Rain = 0
KTAS 231018Z 19013KT 22/20 A2986 RMK A01 T02230200  RH  087%=      5-min Rain = 0
KTAS 231019Z 19011KT 22/20 A2986 RMK A01 T02230200  RH  087%=      5-min Rain = 0
KTAS 231020Z 18013KT 22/20 A2986 RMK A01 T02230200  RH  087%=      5-min Rain = 0
KTAS 231021Z 19011KT 22/20 A2986 RMK A01 T02230200  RH  087%=      5-min Rain = 0
KTAS 231022Z 19014KT 22/20 A2986 RMK A01 T02240200  RH  087%=      5-min Rain = 0
KTAS 231023Z 19011KT 22/20 A2986 RMK A01 T02240200  RH  086%=      5-min Rain = 0
KTAS 231024Z 18013G18KT 22/20 A2986 RMK A01 T02240201  RH  086%=      5-min Rain = 0
KTAS 231025Z 18014KT 22/20 A2986 RMK A01 T02240200  RH  086%=      5-min Rain = 0
KTAS 231026Z 18012KT 23/20 A2986 RMK A01 T02250201  RH  086%=      5-min Rain = 0
KTAS 231027Z 18012KT 22/20 A2986 RMK A01 T02240200  RH  086%=      5-min Rain = 0
KTAS 231028Z 18013KT 22/20 A2986 RMK A01 T02240200  RH  086%=      5-min Rain = 0
KTAS 231029Z 18010KT 22/20 A2986 RMK A01 T02240200  RH  086%=      5-min Rain = 0
KTAS 231030Z 17011KT 22/20 A2986 RMK A01 T02240200  RH  087%=      5-min Rain = 0
KTAS 231031Z 17011KT 22/20 A2986 RMK A01 T02230200  RH  087%=      5-min Rain = 0
KTAS 231032Z 17013KT 22/20 A2986 RMK A01 T02230200  RH  087%=      5-min Rain = 0
KTAS 231033Z 17012KT 22/20 A2986 RMK A01 T02230200  RH  087%=      5-min Rain = 0
KTAS 231034Z 17012KT 22/20 A2986 RMK A01 T02230200  RH  087%=      5-min Rain = 0
KTAS 231035Z 17011KT 22/20 A2986 RMK A01 T02220200  RH  087%=      5-min Rain = 0
KTAS 231036Z 17011KT 22/20 A2986 RMK A01 T02220200  RH  087%=      5-min Rain = 0
KTAS 231037Z 16011KT 22/20 A2986 RMK A01 T02220199  RH  087%=      5-min Rain = 0
KTAS 231038Z 16011KT 22/20 A2986 RMK A01 T02210200  RH  087%=      5-min Rain = 0
KTAS 231039Z 16011KT 22/20 A2986 RMK A01 T02210199  RH  087%=      5-min Rain = 0
KTAS 231040Z 16011KT 22/20 A2986 RMK A01 T02210199  RH  087%=      5-min Rain = 0
KTAS 231041Z 16011KT 22/20 A2986 RMK A01 T02210199  RH  087%=      5-min Rain = 0
KTAS 231042Z 16011KT 22/20 A2986 RMK A01 T02210199  RH  088%=      5-min Rain = 0
KTAS 231043Z 16011KT 22/20 A2986 RMK A01 T02200199  RH  088%=      5-min Rain = 0
KTAS 231044Z 16012KT 22/20 A2986 RMK A01 T02200199  RH  088%=      5-min Rain = 0
KTAS 231045Z 16011KT 22/20 A2985 RMK A01 T02200199  RH  088%=      5-min Rain = 0
KTAS 231046Z 16011KT 22/20 A2985 RMK A01 T02190199  RH  088%=      5-min Rain = 0
KTAS 231047Z 16012KT 22/20 A2986 RMK A01 T02190199  RH  088%=      5-min Rain = 0
KTAS 231048Z 16012KT 22/20 A2985 RMK A01 T02190199  RH  088%=      5-min Rain = 0
KTAS 231049Z 16012KT 22/20 A2985 RMK A01 T02200199  RH  088%=      5-min Rain = 0
KTAS 231050Z 16012KT 22/20 A2985 RMK A01 T02200199  RH  088%=      5-min Rain = 0
KTAS 231051Z 16012KT 22/20 A2985 RMK A01 T02190199  RH  088%=      5-min Rain = 0
KTAS 231052Z 16012KT 22/20 A2985 RMK A01 T02190199  RH  089%=      5-min Rain = 0
KTAS 231053Z 16011KT 22/20 A2985 RMK A01 T02190199  RH  089%=      5-min Rain = 0
KTAS 231054Z 16013KT 22/20 A2985 RMK A01 T02190199  RH  089%=      5-min Rain = 0
KTAS 231055Z 16012KT 22/20 A2985 RMK A01 T02190199  RH  089%=      5-min Rain = 0
KTAS 231056Z 15014KT 22/20 A2985 RMK A01 T02200199  RH  088%=      5-min Rain = 0
KTAS 231057Z 16011KT 22/20 A2985 RMK A01 T02190199  RH  088%=      5-min Rain = 0
KTAS 231058Z 16013KT 22/20 A2985 RMK A01 T02190199  RH  088%=      5-min Rain = 0
KTAS 231059Z 16013KT 22/20 A2985 RMK A01 T02190199  RH  089%=      5-min Rain = 0
KTAS 231100Z 15011KT 22/20 A2985 RMK A01 T02190199  RH  089%=      5-min Rain = 0
KTAS 231101Z 16011KT 22/20 A2985 RMK A01 T02180199  RH  089%=      5-min Rain = 0
KTAS 231102Z 16013KT 22/20 A2985 RMK A01 T02180199  RH  089%=      5-min Rain = 0
KTAS 231103Z 16013KT 22/20 A2985 RMK A01 T02180199  RH  089%=      5-min Rain = 0
KTAS 231104Z 16010KT 22/20 A2985 RMK A01 T02180199  RH  089%=      5-min Rain = 0
KTAS 231105Z 16012KT 22/20 A2985 RMK A01 T02180198  RH  089%=      5-min Rain = 0
KTAS 231106Z 16014KT 22/20 A2985 RMK A01 T02180199  RH  089%=      5-min Rain = 0
KTAS 231107Z 16013KT 22/20 A2985 RMK A01 T02190199  RH  088%=      5-min Rain = 0
KTAS 231108Z 16015KT 22/20 A2985 RMK A01 T02190199  RH  088%=      5-min Rain = 0
KTAS 231109Z 16013KT 22/20 A2985 RMK A01 T02190199  RH  088%=      5-min Rain = 0
KTAS 231110Z 16013KT 22/20 A2984 RMK A01 T02200199  RH  088%=      5-min Rain = 0
KTAS 231111Z 16016KT 22/20 A2984 RMK A01 T02200199  RH  088%=      5-min Rain = 0
KTAS 231112Z 17014KT 22/20 A2984 RMK A01 T02200198  RH  088%=      5-min Rain = 0
KTAS 231113Z 16014G20KT 22/20 A2985 RMK A01 T02200198  RH  088%=      5-min Rain = 0
KTAS 231114Z 17015G20KT 22/20 A2985 RMK A01 T02200199  RH  088%=      5-min Rain = 0
KTAS 231115Z 16015KT 22/20 A2985 RMK A01 T02200199  RH  087%=      5-min Rain = 0
KTAS 231116Z 16013KT 22/20 A2984 RMK A01 T02200198  RH  087%=      5-min Rain = 0
KTAS 231117Z 16013KT 22/20 A2984 RMK A01 T02200199  RH  087%=      5-min Rain = 0
KTAS 231118Z 16013KT 22/20 A2984 RMK A01 T02200198  RH  088%=      5-min Rain = 0
KTAS 231119Z 16013KT 22/20 A2984 RMK A01 T02200198  RH  088%=      5-min Rain = 0
KTAS 231120Z 16012KT 22/20 A2984 RMK A01 T02190198  RH  088%=      5-min Rain = 0
KTAS 231121Z 16012KT 22/20 A2984 RMK A01 T02190198  RH  088%=      5-min Rain = 0
KTAS 231122Z 15014KT 22/20 A2984 RMK A01 T02180198  RH  088%=      5-min Rain = 0
KTAS 231123Z 15014KT 22/20 A2984 RMK A01 T02180198  RH  088%=      5-min Rain = 0
KTAS 231124Z 15012KT 22/20 A2984 RMK A01 T02180198  RH  088%=      5-min Rain = 0
KTAS 231125Z 15012KT 22/20 A2984 RMK A01 T02180198  RH  088%=      5-min Rain = 0
KTAS 231126Z 16012KT 22/20 A2984 RMK A01 T02180198  RH  088%=      5-min Rain = 0
KTAS 231127Z 16013KT 22/20 A2984 RMK A01 T02180198  RH  088%=      5-min Rain = 0
KTAS 231128Z 16013KT 22/20 A2984 RMK A01 T02180198  RH  088%=      5-min Rain = 0
KTAS 231129Z 16012KT 22/20 A2984 RMK A01 T02180198  RH  088%=      5-min Rain = 0
KTAS 231130Z 16013KT 22/20 A2984 RMK A01 T02180198  RH  088%=      5-min Rain = 0
KTAS 231131Z 16013KT 22/20 A2984 RMK A01 T02180198  RH  089%=      5-min Rain = 0
KTAS 231132Z 16013KT 22/20 A2984 RMK A01 T02180198  RH  089%=      5-min Rain = 0
KTAS 231133Z 16014G19KT 22/20 A2985 RMK A01 T02170198  RH  089%=      5-min Rain = 0
KTAS 231134Z 16012KT 22/20 A2985 RMK A01 T02180198  RH  089%=      5-min Rain = 0
KTAS 231135Z 16012KT 22/20 A2985 RMK A01 T02170198  RH  089%=      5-min Rain = 0
KTAS 231136Z 16013KT 22/20 A2985 RMK A01 T02170198  RH  089%=      5-min Rain = 0
KTAS 231137Z 16013KT 22/20 A2985 RMK A01 T02170198  RH  089%=      5-min Rain = 0
KTAS 231138Z 16015KT 22/20 A2985 RMK A01 T02170198  RH  089%=      5-min Rain = 0
KTAS 231139Z 16014KT 22/20 A2985 RMK A01 T02180199  RH  089%=      5-min Rain = 0
KTAS 231140Z 16014KT 22/20 A2985 RMK A01 T02190199  RH  089%=      5-min Rain = 0
KTAS 231141Z 16013KT 22/20 A2985 RMK A01 T02190199  RH  088%=      5-min Rain = 0
KTAS 231142Z 16014KT 22/20 A2985 RMK A01 T02190199  RH  088%=      5-min Rain = 0
KTAS 231143Z 16014KT 22/20 A2985 RMK A01 T02200199  RH  088%=      5-min Rain = 0
KTAS 231144Z 16013KT 22/20 A2985 RMK A01 T02190199  RH  088%=      5-min Rain = 0
KTAS 231145Z 16013KT 22/20 A2985 RMK A01 T02200200  RH  088%=      5-min Rain = 0
KTAS 231146Z 16014G19KT 22/20 A2985 RMK A01 T02200200  RH  088%=      5-min Rain = 0
KTAS 231147Z 16016KT 22/20 A2985 RMK A01 T02200200  RH  088%=      5-min Rain = 0
KTAS 231148Z 16015KT 22/20 A2985 RMK A01 T02210200  RH  088%=      5-min Rain = 0
KTAS 231149Z 16015KT 22/20 A2985 RMK A01 T02210200  RH  088%=      5-min Rain = 0
KTAS 231150Z 16015KT 22/20 A2985 RMK A01 T02210200  RH  088%=      5-min Rain = 0
KTAS 231151Z 15014KT 22/20 A2985 RMK A01 T02210200  RH  088%=      5-min Rain = 0
KTAS 231152Z 15014KT 22/20 A2985 RMK A01 T02220200  RH  088%=      5-min Rain = 0
KTAS 231153Z 15016KT 22/20 A2985 RMK A01 T02220200  RH  088%=      5-min Rain = 0
KTAS 231154Z 15015KT 22/20 A2985 RMK A01 T02210200  RH  087%=      5-min Rain = 0
KTAS 231155Z 15016KT 22/20 A2985 RMK A01 T02220200  RH  087%=      5-min Rain = 0
KTAS 231156Z 15015KT 22/20 A2985 RMK A01 T02220200  RH  087%=      5-min Rain = 0
KTAS 231157Z 15015KT 22/20 A2985 RMK A01 T02220200  RH  087%=      5-min Rain = 0
KTAS 231158Z 15013KT 22/20 A2985 RMK A01 T02220200  RH  088%=      5-min Rain = 0
KTAS 231159Z 15015KT 22/20 A2985 RMK A01 T02220200  RH  087%=      5-min Rain = 0
KTAS 231200Z 15014KT 22/20 A2985 RMK A01 T02220200  RH  087%=      5-min Rain = 0
KTAS 231201Z 15013KT 22/20 A2985 RMK A01 T02210200  RH  087%=      5-min Rain = 0
KTAS 231202Z 15013KT 22/20 A2985 RMK A01 T02220200  RH  087%=      5-min Rain = 0
KTAS 231203Z 15013KT 22/20 A2985 RMK A01 T02210200  RH  088%=      5-min Rain = 0
KTAS 231204Z 15016KT 22/20 A2985 RMK A01 T02210200  RH  088%=      5-min Rain = 0
KTAS 231205Z 15015KT 22/20 A2985 RMK A01 T02210200  RH  088%=      5-min Rain = 0
KTAS 231206Z 15013KT 22/20 A2985 RMK A01 T02220200  RH  088%=      5-min Rain = 0
KTAS 231207Z 15014KT 22/20 A2985 RMK A01 T02220200  RH  088%=      5-min Rain = 0
KTAS 231208Z 15014KT 22/20 A2985 RMK A01 T02220200  RH  088%=      5-min Rain = 0
KTAS 231209Z 15016KT 22/20 A2985 RMK A01 T02220200  RH  088%=      5-min Rain = 0
KTAS 231210Z 15013KT 22/20 A2985 RMK A01 T02210200  RH  088%=      5-min Rain = 0
KTAS 231211Z 15014G19KT 22/20 A2985 RMK A01 T02210200  RH  088%=      5-min Rain = 0
KTAS 231212Z 15017KT 22/20 A2985 RMK A01 T02220200  RH  088%=      5-min Rain = 0
KTAS 231213Z 15016KT 22/20 A2985 RMK A01 T02220201  RH  087%=      5-min Rain = 0
KTAS 231214Z 15013G18KT 22/20 A2985 RMK A01 T02220200  RH  088%=      5-min Rain = 0
KTAS 231215Z 15016KT 22/20 A2985 RMK A01 T02220201  RH  088%=      5-min Rain = 0
KTAS 231216Z 15015KT 22/20 A2985 RMK A01 T02220201  RH  087%=      5-min Rain = 0
KTAS 231217Z 15016KT 22/20 A2985 RMK A01 T02220201  RH  088%=      5-min Rain = 0
KTAS 231218Z 15017KT 22/20 A2986 RMK A01 T02230201  RH  087%=      5-min Rain = 0
KTAS 231219Z 15012G17KT 22/20 A2986 RMK A01 T02230201  RH  087%=      5-min Rain = 0
KTAS 231220Z 15016KT 22/20 A2986 RMK A01 T02230201  RH  087%=      5-min Rain = 0
KTAS 231221Z 15016KT 22/20 A2986 RMK A01 T02230201  RH  088%=      5-min Rain = 0
KTAS 231222Z 15017KT 22/20 A2986 RMK A01 T02230201  RH  087%=      5-min Rain = 0
KTAS 231223Z 15016KT 22/20 A2986 RMK A01 T02230201  RH  087%=      5-min Rain = 0
KTAS 231224Z 15015KT 22/20 A2986 RMK A01 T02230201  RH  087%=      5-min Rain = 0
KTAS 231225Z 15019KT 22/20 A2986 RMK A01 T02230201  RH  087%=      5-min Rain = 0
KTAS 231226Z 15016KT 22/20 A2986 RMK A01 T02230201  RH  087%=      5-min Rain = 0
KTAS 231227Z 15015KT 22/20 A2986 RMK A01 T02230201  RH  087%=      5-min Rain = 0
KTAS 231228Z 15013G18KT 22/20 A2986 RMK A01 T02240201  RH  087%=      5-min Rain = 0
KTAS 231229Z 15015KT 22/20 A2986 RMK A01 T02230201  RH  087%=      5-min Rain = 0
KTAS 231230Z 15015KT 22/20 A2986 RMK A01 T02230201  RH  087%=      5-min Rain = 0
KTAS 231231Z 15016KT 22/20 A2986 RMK A01 T02240201  RH  087%=      5-min Rain = 0
KTAS 231232Z 15017KT 22/20 A2986 RMK A01 T02230201  RH  087%=      5-min Rain = 0
KTAS 231233Z 15017KT 22/20 A2986 RMK A01 T02230201  RH  087%=      5-min Rain = 0
KTAS 231234Z 15016KT 22/20 A2986 RMK A01 T02240201  RH  087%=      5-min Rain = 0
KTAS 231235Z 15015KT 22/20 A2986 RMK A01 T02240202  RH  087%=      5-min Rain = 0
KTAS 231236Z 15015KT 22/20 A2986 RMK A01 T02240202  RH  087%=      5-min Rain = 0
KTAS 231237Z 15015KT 22/20 A2986 RMK A01 T02240202  RH  087%=      5-min Rain = 0
KTAS 231238Z 15016KT 22/20 A2986 RMK A01 T02240202  RH  087%=      5-min Rain = 0
KTAS 231239Z 15018KT 22/20 A2986 RMK A01 T02240202  RH  087%=      5-min Rain = 0
KTAS 231240Z 15017G22KT 22/20 A2986 RMK A01 T02240201  RH  087%=      5-min Rain = 0
KTAS 231241Z 15017KT 22/20 A2986 RMK A01 T02240201  RH  087%=      5-min Rain = 0
KTAS 231242Z 15016KT 22/20 A2986 RMK A01 T02240201  RH  087%=      5-min Rain = 0
KTAS 231243Z 15013KT 23/20 A2986 RMK A01 T02250202  RH  087%=      5-min Rain = 0
KTAS 231244Z 15015KT 22/20 A2986 RMK A01 T02240201  RH  087%=      5-min Rain = 0
KTAS 231245Z 15013KT 22/20 A2986 RMK A01 T02240201  RH  087%=      5-min Rain = 0
KTAS 231246Z 15017KT 22/20 A2986 RMK A01 T02240201  RH  087%=      5-min Rain = 0
KTAS 231247Z 15016KT 22/20 A2986 RMK A01 T02240201  RH  087%=      5-min Rain = 0
KTAS 231248Z 15016KT 23/20 A2986 RMK A01 T02250201  RH  087%=      5-min Rain = 0
KTAS 231249Z 15014KT 23/20 A2986 RMK A01 T02250202  RH  087%=      5-min Rain = 0
KTAS 231250Z 15016KT 23/20 A2986 RMK A01 T02250202  RH  087%=      5-min Rain = 0
KTAS 231251Z 15016KT 23/20 A2986 RMK A01 T02250201  RH  087%=      5-min Rain = 0
KTAS 231252Z 15015KT 23/20 A2986 RMK A01 T02250202  RH  087%=      5-min Rain = 0
KTAS 231253Z 15016KT 23/20 A2986 RMK A01 T02250202  RH  087%=      5-min Rain = 0
KTAS 231254Z 15016KT 23/20 A2986 RMK A01 T02250202  RH  087%=      5-min Rain = 0
KTAS 231255Z 15015G20KT 23/20 A2986 RMK A01 T02250202  RH  087%=      5-min Rain = 0
KTAS 231256Z 15015KT 23/20 A2986 RMK A01 T02250202  RH  087%=      5-min Rain = 0
KTAS 231257Z 15014KT 23/20 A2986 RMK A01 T02250201  RH  087%=      5-min Rain = 0
KTAS 231258Z 15015KT 23/20 A2986 RMK A01 T02250202  RH  087%=      5-min Rain = 0
KTAS 231259Z 15016KT 23/20 A2986 RMK A01 T02250202  RH  086%=      5-min Rain = 0
KTAS 231300Z 15014KT 23/20 A2986 RMK A01 T02250202  RH  086%=      5-min Rain = 0
KTAS 231301Z 15014KT 23/20 A2987 RMK A01 T02260202  RH  087%=      5-min Rain = 0
KTAS 231302Z 15014KT 23/20 A2987 RMK A01 T02250202  RH  086%=      5-min Rain = 0
KTAS 231303Z 15013KT 23/20 A2987 RMK A01 T02260203  RH  087%=      5-min Rain = 0
KTAS 231304Z 15014KT 23/20 A2987 RMK A01 T02260203  RH  087%=      5-min Rain = 0
KTAS 231305Z 15016KT 23/20 A2987 RMK A01 T02260202  RH  087%=      5-min Rain = 0
KTAS 231306Z 15015KT 23/20 A2987 RMK A01 T02260202  RH  086%=      5-min Rain = 0
KTAS 231307Z 15015KT 23/20 A2987 RMK A01 T02260202  RH  086%=      5-min Rain = 0
KTAS 231308Z 15014KT 23/20 A2987 RMK A01 T02260202  RH  087%=      5-min Rain = 0
KTAS 231309Z 15015KT 23/20 A2987 RMK A01 T02260202  RH  086%=      5-min Rain = 0
KTAS 231310Z 15012KT 23/20 A2987 RMK A01 T02260202  RH  087%=      5-min Rain = 0
KTAS 231311Z 15013KT 23/20 A2987 RMK A01 T02260203  RH  087%=      5-min Rain = 0
KTAS 231312Z 15012KT 23/20 A2987 RMK A01 T02260203  RH  087%=      5-min Rain = 0
KTAS 231313Z 15013KT 23/20 A2987 RMK A01 T02260203  RH  087%=      5-min Rain = 0
KTAS 231314Z 15014KT 23/20 A2987 RMK A01 T02260203  RH  087%=      5-min Rain = 0
KTAS 231315Z 15015KT 23/20 A2987 RMK A01 T02260202  RH  086%=      5-min Rain = 0
KTAS 231316Z 15015KT 23/20 A2987 RMK A01 T02260202  RH  086%=      5-min Rain = 0
KTAS 231317Z 15015KT 23/20 A2987 RMK A01 T02260203  RH  087%=      5-min Rain = 0
KTAS 231318Z 15015KT 23/20 A2987 RMK A01 T02260202  RH  086%=      5-min Rain = 0
KTAS 231319Z 15015KT 23/20 A2987 RMK A01 T02260202  RH  086%=      5-min Rain = 0
KTAS 231320Z 15015KT 23/20 A2987 RMK A01 T02260202  RH  086%=      5-min Rain = 0
KTAS 231321Z 15014KT 23/20 A2987 RMK A01 T02260202  RH  086%=      5-min Rain = 0
KTAS 231322Z 15013KT 23/20 A2987 RMK A01 T02260202  RH  086%=      5-min Rain = 0
KTAS 231323Z 15016KT 23/20 A2987 RMK A01 T02260202  RH  087%=      5-min Rain = 0
KTAS 231324Z 15014KT 23/20 A2987 RMK A01 T02250202  RH  086%=      5-min Rain = 0
KTAS 231325Z 14011KT 23/20 A2987 RMK A01 T02260202  RH  086%=      5-min Rain = 0
KTAS 231326Z 15012KT 23/20 A2987 RMK A01 T02260203  RH  087%=      5-min Rain = 0
KTAS 231327Z 15012G17KT 23/20 A2987 RMK A01 T02260203  RH  087%=      5-min Rain = 0
KTAS 231328Z 15014KT 23/20 A2987 RMK A01 T02260203  RH  087%=      5-min Rain = 0
KTAS 231329Z 15013KT 23/20 A2987 RMK A01 T02260203  RH  087%=      5-min Rain = 0
KTAS 231330Z 15013KT 23/20 A2987 RMK A01 T02260202  RH  086%=      5-min Rain = 0
KTAS 231331Z 15011KT 23/20 A2987 RMK A01 T02260203  RH  087%=      5-min Rain = 0
KTAS 231332Z 14010KT 23/20 A2987 RMK A01 T02260203  RH  087%=      5-min Rain = 0
KTAS 231333Z 14012KT 23/20 A2987 RMK A01 T02260203  RH  087%=      5-min Rain = 0
KTAS 231334Z 14013KT 23/20 A2987 RMK A01 T02250203  RH  087%=      5-min Rain = 0
KTAS 231335Z 14011KT 23/20 A2987 RMK A01 T02250203  RH  087%=      5-min Rain = 0
KTAS 231336Z 14014KT 23/20 A2987 RMK A01 T02250203  RH  087%=      5-min Rain = 0
KTAS 231337Z 14012KT 23/20 A2987 RMK A01 T02250203  RH  087%=      5-min Rain = 0
KTAS 231338Z 14014KT 23/20 A2987 RMK A01 T02250203  RH  087%=      5-min Rain = 0
KTAS 231339Z 14012KT 23/20 A2987 RMK A01 T02250203  RH  087%=      5-min Rain = 0
KTAS 231340Z 14012KT 23/20 A2987 RMK A01 T02250203  RH  087%=      5-min Rain = 0
KTAS 231341Z 14011KT 23/20 A2987 RMK A01 T02250203  RH  087%=      5-min Rain = 0
KTAS 231342Z 14010KT 23/20 A2987 RMK A01 T02250203  RH  087%=      5-min Rain = 0
KTAS 231343Z 14012KT 23/20 A2987 RMK A01 T02250203  RH  087%=      5-min Rain = 0
KTAS 231344Z 15011KT 23/20 A2987 RMK A01 T02250203  RH  088%=      5-min Rain = 0
KTAS 231345Z 14012KT 23/20 A2987 RMK A01 T02250203  RH  087%=      5-min Rain = 0
KTAS 231346Z 14011KT 23/20 A2987 RMK A01 T02250203  RH  087%=      5-min Rain = 0
KTAS 231347Z 14012KT 23/20 A2987 RMK A01 T02250204  RH  087%=      5-min Rain = 0
KTAS 231348Z 14012KT 23/20 A2987 RMK A01 T02250204  RH  087%=      5-min Rain = 0
KTAS 231349Z 14011KT 23/20 A2987 RMK A01 T02250204  RH  088%=      5-min Rain = 0
KTAS 231350Z 14012KT 23/20 A2987 RMK A01 T02250204  RH  087%=      5-min Rain = 0
KTAS 231351Z 14011KT 23/20 A2987 RMK A01 T02250204  RH  088%=      5-min Rain = 0
KTAS 231352Z 14014KT 23/20 A2987 RMK A01 T02260204  RH  088%=      5-min Rain = 0
KTAS 231353Z 14012KT 23/20 A2987 RMK A01 T02260204  RH  087%=      5-min Rain = 0
KTAS 231354Z 14013KT 23/20 A2987 RMK A01 T02260204  RH  087%=      5-min Rain = 0
KTAS 231355Z 14011KT 23/20 A2987 RMK A01 T02260204  RH  087%=      5-min Rain = 0
KTAS 231356Z 14011KT 23/21 A2987 RMK A01 T02270205  RH  087%=      5-min Rain = 0
KTAS 231357Z 14012KT 23/20 A2987 RMK A01 T02270204  RH  087%=      5-min Rain = 0
KTAS 231358Z 14013KT 23/20 A2987 RMK A01 T02270204  RH  087%=      5-min Rain = 0
KTAS 231359Z 14013KT 23/20 A2987 RMK A01 T02270204  RH  087%=      5-min Rain = 0
KTAS 231400Z 14012KT 23/20 A2987 RMK A01 T02270204  RH  087%=      5-min Rain = 0
KTAS 231401Z 14013KT 23/21 A2988 RMK A01 T02270205  RH  087%=      5-min Rain = 0
KTAS 231402Z 14013KT 23/20 A2987 RMK A01 T02270204  RH  087%=      5-min Rain = 0
KTAS 231403Z 14012KT 23/21 A2987 RMK A01 T02280205  RH  087%=      5-min Rain = 0
KTAS 231404Z 14013KT 23/21 A2987 RMK A01 T02290206  RH  087%=      5-min Rain = 0
KTAS 231405Z 15014KT 23/21 A2987 RMK A01 T02290205  RH  086%=      5-min Rain = 0
KTAS 231406Z 14010KT 23/21 A2987 RMK A01 T02300206  RH  086%=      5-min Rain = 0
KTAS 231407Z 14013KT 23/21 A2987 RMK A01 T02310206  RH  086%=      5-min Rain = 0
KTAS 231408Z 15015KT 23/21 A2987 RMK A01 T02310205  RH  086%=      5-min Rain = 0
KTAS 231409Z 14015KT 23/20 A2987 RMK A01 T02300204  RH  085%=      5-min Rain = 0
KTAS 231410Z 15017KT 23/20 A2987 RMK A01 T02300204  RH  085%=      5-min Rain = 0
KTAS 231411Z 14019KT 23/20 A2987 RMK A01 T02290203  RH  085%=      5-min Rain = 0
KTAS 231412Z 14017KT 23/20 A2987 RMK A01 T02300203  RH  085%=      5-min Rain = 0
KTAS 231413Z 15017KT 23/20 A2987 RMK A01 T02300203  RH  085%=      5-min Rain = 0
KTAS 231414Z 15018KT 23/20 A2987 RMK A01 T02300203  RH  085%=      5-min Rain = 0
KTAS 231415Z 15017KT 23/20 A2987 RMK A01 T02300203  RH  085%=      5-min Rain = 0
KTAS 231416Z 15018KT 23/20 A2987 RMK A01 T02300203  RH  085%=      5-min Rain = 0
KTAS 231417Z 15018KT 23/20 A2987 RMK A01 T02320204  RH  084%=      5-min Rain = 0
KTAS 231418Z 15019G25KT 23/20 A2987 RMK A01 T02330204  RH  084%=      5-min Rain = 0
KTAS 231419Z 15019KT 23/20 A2987 RMK A01 T02340204  RH  083%=      5-min Rain = 0
KTAS 231420Z 15013G18KT 24/21 A2987 RMK A01 T02350205  RH  083%=      5-min Rain = 0
KTAS 231421Z 15016KT 24/21 A2988 RMK A01 T02360206  RH  083%=      5-min Rain = 0
KTAS 231422Z 15016KT 24/21 A2988 RMK A01 T02370205  RH  082%=      5-min Rain = 0
KTAS 231423Z 15020KT 24/21 A2988 RMK A01 T02370205  RH  082%=      5-min Rain = 0
KTAS 231424Z 15016KT 24/21 A2988 RMK A01 T02370206  RH  083%=      5-min Rain = 0
KTAS 231425Z 15016KT 24/21 A2987 RMK A01 T02390206  RH  082%=      5-min Rain = 0
KTAS 231426Z 15018KT 24/21 A2987 RMK A01 T02390206  RH  081%=      5-min Rain = 0
KTAS 231427Z 15016KT 24/21 A2987 RMK A01 T02400207  RH  082%=      5-min Rain = 0
KTAS 231428Z 15017G23KT 24/21 A2988 RMK A01 T02410206  RH  081%=      5-min Rain = 0
KTAS 231429Z 15018G24KT 24/21 A2988 RMK A01 T02410207  RH  081%=      5-min Rain = 0
KTAS 231430Z 15017KT 24/21 A2988 RMK A01 T02410206  RH  081%=      5-min Rain = 0
KTAS 231431Z 15018KT 24/21 A2988 RMK A01 T02410206  RH  081%=      5-min Rain = 0
KTAS 231432Z 15019G24KT 24/21 A2988 RMK A01 T02410205  RH  081%=      5-min Rain = 0
KTAS 231433Z 15021KT 24/21 A2988 RMK A01 T02400205  RH  081%=      5-min Rain = 0
KTAS 231434Z 15017KT 24/21 A2988 RMK A01 T02400205  RH  081%=      5-min Rain = 0
KTAS 231435Z 15014G19KT 24/21 A2988 RMK A01 T02420208  RH  081%=      5-min Rain = 0
KTAS 231436Z 15014KT 24/21 A2988 RMK A01 T02440209  RH  081%=      5-min Rain = 0
KTAS 231437Z 14016KT 25/21 A2988 RMK A01 T02450207  RH  080%=      5-min Rain = 0
KTAS 231438Z 15015KT 25/21 A2988 RMK A01 T02450208  RH  080%=      5-min Rain = 0
KTAS 231439Z 15015KT 25/21 A2988 RMK A01 T02450208  RH  080%=      5-min Rain = 0
KTAS 231440Z 15015KT 25/21 A2988 RMK A01 T02460208  RH  079%=      5-min Rain = 0
KTAS 231441Z 15015G20KT 25/21 A2988 RMK A01 T02460209  RH  080%=      5-min Rain = 0
KTAS 231442Z 15015G20KT 25/21 A2988 RMK A01 T02470208  RH  079%=      5-min Rain = 0
KTAS 231443Z 16019KT 25/21 A2988 RMK A01 T02460207  RH  079%=      5-min Rain = 0
KTAS 231444Z 15018KT 24/21 A2988 RMK A01 T02440206  RH  079%=      5-min Rain = 0
KTAS 231445Z 15018G23KT 24/21 A2988 RMK A01 T02430206  RH  079%=      5-min Rain = 0
KTAS 231446Z 15019KT 24/21 A2988 RMK A01 T02430205  RH  080%=      5-min Rain = 0
KTAS 231447Z 15021KT 24/21 A2988 RMK A01 T02420205  RH  079%=      5-min Rain = 0
KTAS 231448Z 15020KT 24/20 A2988 RMK A01 T02420204  RH  080%=      5-min Rain = 0
KTAS 231449Z 15018G23KT 24/21 A2988 RMK A01 T02410205  RH  080%=      5-min Rain = 0
KTAS 231450Z 16019KT 24/21 A2988 RMK A01 T02420206  RH  080%=      5-min Rain = 0
KTAS 231451Z 16020KT 24/21 A2988 RMK A01 T02430206  RH  080%=      5-min Rain = 0
KTAS 231452Z 15017KT 24/21 A2988 RMK A01 T02440207  RH  080%=      5-min Rain = 0
KTAS 231453Z 15018KT 25/21 A2988 RMK A01 T02460208  RH  079%=      5-min Rain = 0
KTAS 231454Z 15019G24KT 25/21 A2988 RMK A01 T02450205  RH  078%=      5-min Rain = 0
KTAS 231455Z 15020KT 25/21 A2988 RMK A01 T02450206  RH  079%=      5-min Rain = 0
KTAS 231456Z 15020KT 25/21 A2988 RMK A01 T02450206  RH  079%=      5-min Rain = 0
KTAS 231457Z 15021KT 25/21 A2988 RMK A01 T02450205  RH  078%=      5-min Rain = 0
KTAS 231458Z 15017KT 24/21 A2988 RMK A01 T02440206  RH  079%=      5-min Rain = 0
KTAS 231459Z 15019KT 25/21 A2988 RMK A01 T02450206  RH  079%=      5-min Rain = 0
KTAS 231500Z 15020KT 25/21 A2988 RMK A01 T02470208  RH  079%=      5-min Rain = 0
KTAS 231501Z 15018G24KT 25/21 A2988 RMK A01 T02480208  RH  078%=      5-min Rain = 0
KTAS 231502Z 16021KT 25/21 A2988 RMK A01 T02480207  RH  078%=      5-min Rain = 0
KTAS 231503Z 16017G22KT 25/21 A2988 RMK A01 T02460206  RH  078%=      5-min Rain = 0
KTAS 231504Z 16019KT 25/21 A2988 RMK A01 T02450206  RH  079%=      5-min Rain = 0
KTAS 231505Z 15020G25KT 25/21 A2988 RMK A01 T02450206  RH  079%=      5-min Rain = 0
KTAS 231506Z 15019G25KT 25/21 A2988 RMK A01 T02460206  RH  078%=      5-min Rain = 0
KTAS 231507Z 16019KT 25/21 A2988 RMK A01 T02470207  RH  078%=      5-min Rain = 0
KTAS 231508Z 16019KT 25/21 A2988 RMK A01 T02480207  RH  078%=      5-min Rain = 0
KTAS 231509Z 16020KT 25/21 A2988 RMK A01 T02470206  RH  078%=      5-min Rain = 0
KTAS 231510Z 15019KT 25/21 A2988 RMK A01 T02460206  RH  078%=      5-min Rain = 0
KTAS 231511Z 15021G29KT 25/21 A2988 RMK A01 T02450205  RH  078%=      5-min Rain = 0
KTAS 231512Z 15021KT 25/21 A2988 RMK A01 T02450205  RH  078%=      5-min Rain = 0
KTAS 231513Z 15022KT 24/20 A2988 RMK A01 T02440204  RH  078%=      5-min Rain = 0
KTAS 231514Z 16019KT 24/21 A2989 RMK A01 T02440205  RH  079%=      5-min Rain = 0
KTAS 231515Z 16019KT 25/21 A2989 RMK A01 T02450206  RH  079%=      5-min Rain = 0
KTAS 231516Z 16020KT 25/21 A2989 RMK A01 T02460206  RH  078%=      5-min Rain = 0
KTAS 231517Z 16017KT 25/21 A2989 RMK A01 T02470207  RH  078%=      5-min Rain = 0
KTAS 231518Z 17020G26KT 25/21 A2989 RMK A01 T02490207  RH  078%=      5-min Rain = 0
KTAS 231519Z 16019G24KT 25/21 A2989 RMK A01 T02490207  RH  077%=      5-min Rain = 0
KTAS 231520Z 16021KT 25/21 A2989 RMK A01 T02490206  RH  077%=      5-min Rain = 0
KTAS 231521Z 16022KT 25/21 A2989 RMK A01 T02480205  RH  077%=      5-min Rain = 0
KTAS 231522Z 16018KT 25/21 A2989 RMK A01 T02490207  RH  078%=      5-min Rain = 0
KTAS 231523Z 16024KT 25/21 A2989 RMK A01 T02490206  RH  077%=      5-min Rain = 0
KTAS 231524Z 16022KT 25/20 A2989 RMK A01 T02470204  RH  077%=      5-min Rain = 0
KTAS 231525Z 16024KT 25/20 A2989 RMK A01 T02450204  RH  078%=      5-min Rain = 0
KTAS 231526Z 16022G27KT 25/21 A2989 RMK A01 T02450205  RH  078%=      5-min Rain = 0
KTAS 231527Z 16020KT 25/21 A2989 RMK A01 T02470206  RH  078%=      5-min Rain = 0
KTAS 231528Z 16021G29KT 25/21 A2989 RMK A01 T02500208  RH  078%=      5-min Rain = 0
KTAS 231529Z 16023G28KT 25/21 A2989 RMK A01 T02500205  RH  076%=      5-min Rain = 0
KTAS 231530Z 17024G29KT 25/21 A2989 RMK A01 T02500206  RH  077%=      5-min Rain = 0
KTAS 231531Z 16022KT 25/21 A2989 RMK A01 T02490206  RH  077%=      5-min Rain = 0
KTAS 231532Z 16022G27KT 25/21 A2989 RMK A01 T02490206  RH  077%=      5-min Rain = 0
KTAS 231533Z 16023G28KT 25/21 A2989 RMK A01 T02490206  RH  077%=      5-min Rain = 0
KTAS 231534Z 17023KT 25/21 A2989 RMK A01 T02480205  RH  077%=      5-min Rain = 0
KTAS 231535Z 16019G25KT 25/20 A2989 RMK A01 T02460204  RH  077%=      5-min Rain = 0
KTAS 231536Z 16020KT 25/20 A2989 RMK A01 T02460204  RH  078%=      5-min Rain = 0
KTAS 231537Z 17022G27KT 25/20 A2989 RMK A01 T02450203  RH  078%=      5-min Rain = 0
KTAS 231538Z 17021KT 24/20 A2989 RMK A01 T02430204  RH  079%=      5-min Rain = 0
KTAS 231539Z 17020KT 24/20 A2989 RMK A01 T02420203  RH  079%=      5-min Rain = 0
KTAS 231540Z 17019KT 24/20 A2989 RMK A01 T02420204  RH  079%=      5-min Rain = 0
KTAS 231541Z 16021KT 24/21 A2989 RMK A01 T02440205  RH  079%=      5-min Rain = 0
KTAS 231542Z 16019KT 25/20 A2989 RMK A01 T02450204  RH  078%=      5-min Rain = 0
KTAS 231543Z 16020G26KT 25/20 A2989 RMK A01 T02460204  RH  078%=      5-min Rain = 0
KTAS 231544Z 16022KT 25/20 A2989 RMK A01 T02460204  RH  078%=      5-min Rain = 0
KTAS 231545Z 16020KT 24/20 A2989 RMK A01 T02440203  RH  078%=      5-min Rain = 0
KTAS 231546Z 17022G27KT 24/20 A2989 RMK A01 T02440203  RH  078%=      5-min Rain = 0
KTAS 231547Z 17018G24KT 25/20 A2989 RMK A01 T02450203  RH  078%=      5-min Rain = 0
KTAS 231548Z 17018KT 25/20 A2989 RMK A01 T02450204  RH  078%=      5-min Rain = 0
KTAS 231549Z 17020G25KT 25/20 A2989 RMK A01 T02450204  RH  078%=      5-min Rain = 0
KTAS 231550Z 17018G24KT 24/20 A2989 RMK A01 T02440203  RH  078%=      5-min Rain = 0
KTAS 231551Z 16016G21KT 24/20 A2989 RMK A01 T02440204  RH  078%=      5-min Rain = 0
KTAS 231552Z 15017G22KT 25/21 A2989 RMK A01 T02450205  RH  078%=      5-min Rain = 0
KTAS 231553Z 16019KT 25/21 A2989 RMK A01 T02460205  RH  078%=      5-min Rain = 0
KTAS 231554Z 16019KT 25/21 A2989 RMK A01 T02460205  RH  078%=      5-min Rain = 0
KTAS 231555Z 16016G22KT 25/21 A2989 RMK A01 T02450205  RH  078%=      5-min Rain = 0
KTAS 231556Z 17017KT 25/20 A2989 RMK A01 T02450204  RH  078%=      5-min Rain = 0
KTAS 231557Z 16016KT 24/20 A2989 RMK A01 T02440204  RH  078%=      5-min Rain = 0
KTAS 231558Z 17019KT 25/21 A2989 RMK A01 T02450205  RH  078%=      5-min Rain = 0
KTAS 231559Z 17018KT 25/20 A2989 RMK A01 T02450204  RH  078%=      5-min Rain = 0
KTAS 231600Z 17018KT 24/20 A2989 RMK A01 T02440204  RH  078%=      5-min Rain = 0
KTAS 231601Z 16020KT 24/20 A2989 RMK A01 T02440203  RH  078%=      5-min Rain = 0
KTAS 231602Z 17018G23KT 24/20 A2989 RMK A01 T02430202  RH  078%=      5-min Rain = 0
KTAS 231603Z 17019KT 24/20 A2989 RMK A01 T02420203  RH  079%=      5-min Rain = 0
KTAS 231604Z 17019KT 24/20 A2989 RMK A01 T02420202  RH  078%=      5-min Rain = 0
KTAS 231605Z 17020KT 24/20 A2989 RMK A01 T02420202  RH  078%=      5-min Rain = 0
KTAS 231606Z 17020KT 24/20 A2989 RMK A01 T02420202  RH  078%=      5-min Rain = 0
KTAS 231607Z 16020KT 24/20 A2989 RMK A01 T02420203  RH  079%=      5-min Rain = 0
KTAS 231608Z 16020KT 24/20 A2989 RMK A01 T02420202  RH  078%=      5-min Rain = 0
KTAS 231609Z 17018G23KT 24/20 A2989 RMK A01 T02430202  RH  078%=      5-min Rain = 0
KTAS 231610Z 17020KT 24/20 A2989 RMK A01 T02430203  RH  078%=      5-min Rain = 0
KTAS 231611Z 17017G23KT 24/20 A2989 RMK A01 T02430203  RH  079%=      5-min Rain = 0
KTAS 231612Z 17017KT 24/20 A2989 RMK A01 T02440204  RH  078%=      5-min Rain = 0
KTAS 231613Z 17019KT 24/20 A2989 RMK A01 T02440204  RH  078%=      5-min Rain = 0
KTAS 231614Z 17018KT 25/20 A2989 RMK A01 T02450203  RH  077%=      5-min Rain = 0
KTAS 231615Z 16017G22KT 25/20 A2989 RMK A01 T02450203  RH  077%=      5-min Rain = 0
KTAS 231616Z 16019KT 25/20 A2989 RMK A01 T02450203  RH  077%=      5-min Rain = 0
KTAS 231617Z 17020KT 24/20 A2989 RMK A01 T02440202  RH  077%=      5-min Rain = 0
KTAS 231618Z 17020G25KT 24/20 A2989 RMK A01 T02440202  RH  078%=      5-min Rain = 0
KTAS 231619Z 17016G21KT 24/20 A2989 RMK A01 T02430203  RH  078%=      5-min Rain = 0
KTAS 231620Z 16018KT 24/20 A2989 RMK A01 T02440204  RH  078%=      5-min Rain = 0
KTAS 231621Z 17016KT 24/20 A2989 RMK A01 T02440204  RH  078%=      5-min Rain = 0
KTAS 231622Z 16016G23KT 25/20 A2989 RMK A01 T02450204  RH  078%=      5-min Rain = 0
KTAS 231623Z 16019KT 25/20 A2989 RMK A01 T02450204  RH  078%=      5-min Rain = 0
KTAS 231624Z 17020KT 25/20 A2989 RMK A01 T02460204  RH  077%=      5-min Rain = 0
KTAS 231625Z 17018KT 25/21 A2989 RMK A01 T02470205  RH  077%=      5-min Rain = 0
KTAS 231626Z 16017KT 25/21 A2989 RMK A01 T02490206  RH  077%=      5-min Rain = 0
KTAS 231627Z 17020KT 25/21 A2989 RMK A01 T02530208  RH  076%=      5-min Rain = 0
KTAS 231628Z 16019G25KT 26/21 A2989 RMK A01 T02550207  RH  075%=      5-min Rain = 0
KTAS 231629Z 17019G24KT 26/21 A2989 RMK A01 T02580209  RH  075%=      5-min Rain = 0
KTAS 231630Z 17019KT 26/21 A2989 RMK A01 T02580207  RH  073%=      5-min Rain = 0
KTAS 231631Z 17017KT 26/21 A2989 RMK A01 T02570206  RH  073%=      5-min Rain = 0
KTAS 231632Z 18018KT 26/21 A2989 RMK A01 T02560205  RH  074%=      5-min Rain = 0
KTAS 231633Z 16018KT 26/21 A2989 RMK A01 T02570209  RH  075%=      5-min Rain = 0
KTAS 231634Z 16019KT 26/21 A2989 RMK A01 T02600208  RH  073%=      5-min Rain = 0
KTAS 231635Z 17023KT 26/21 A2989 RMK A01 T02610207  RH  072%=      5-min Rain = 0
KTAS 231636Z 16021G27KT 26/21 A2989 RMK A01 T02600206  RH  072%=      5-min Rain = 0
KTAS 231637Z 16020G26KT 26/20 A2989 RMK A01 T02580204  RH  072%=      5-min Rain = 0
KTAS 231638Z 16018KT 26/21 A2989 RMK A01 T02600208  RH  073%=      5-min Rain = 0
KTAS 231639Z 17016KT 26/21 A2989 RMK A01 T02620208  RH  072%=      5-min Rain = 0
KTAS 231640Z 17020G27KT 26/21 A2989 RMK A01 T02630207  RH  071%=      5-min Rain = 0
KTAS 231641Z 17021G26KT 26/20 A2989 RMK A01 T02600204  RH  071%=      5-min Rain = 0
KTAS 231642Z 16021KT 26/20 A2989 RMK A01 T02590203  RH  071%=      5-min Rain = 0
KTAS 231643Z 16023KT 26/20 A2989 RMK A01 T02590203  RH  071%=      5-min Rain = 0
KTAS 231644Z 17021G26KT 26/20 A2989 RMK A01 T02590203  RH  071%=      5-min Rain = 0
KTAS 231645Z 16019G24KT 26/20 A2989 RMK A01 T02580204  RH  072%=      5-min Rain = 0
KTAS 231646Z 17020KT 26/20 A2989 RMK A01 T02580204  RH  072%=      5-min Rain = 0
KTAS 231647Z 17021KT 26/20 A2989 RMK A01 T02570203  RH  072%=      5-min Rain = 0
KTAS 231648Z 17021KT 26/20 A2989 RMK A01 T02560201  RH  072%=      5-min Rain = 0
KTAS 231649Z 17023KT 26/20 A2989 RMK A01 T02560202  RH  072%=      5-min Rain = 0
KTAS 231650Z 17020KT 26/20 A2989 RMK A01 T02550201  RH  072%=      5-min Rain = 0
KTAS 231651Z 17018KT 26/20 A2989 RMK A01 T02560202  RH  072%=      5-min Rain = 0
KTAS 231652Z 17018G25KT 26/20 A2989 RMK A01 T02570204  RH  072%=      5-min Rain = 0
KTAS 231653Z 18024KT 26/20 A2989 RMK A01 T02570201  RH  071%=      5-min Rain = 0
KTAS 231654Z 17019G26KT 26/20 A2989 RMK A01 T02550201  RH  072%=      5-min Rain = 0
KTAS 231655Z 18018KT 25/20 A2989 RMK A01 T02540202  RH  073%=      5-min Rain = 0
KTAS 231656Z 17016G21KT 26/20 A2989 RMK A01 T02560204  RH  073%=      5-min Rain = 0
KTAS 231657Z 17020G25KT 26/21 A2989 RMK A01 T02600206  RH  072%=      5-min Rain = 0
KTAS 231658Z 16019G24KT 26/21 A2989 RMK A01 T02610205  RH  071%=      5-min Rain = 0
KTAS 231659Z 17021KT 26/21 A2989 RMK A01 T02640207  RH  071%=      5-min Rain = 0
KTAS 231700Z 17021KT 26/20 A2989 RMK A01 T02620203  RH  070%=      5-min Rain = 0
KTAS 231701Z 17024G30KT 26/20 A2989 RMK A01 T02620202  RH  070%=      5-min Rain = 0
KTAS 231702Z 17022KT 26/20 A2989 RMK A01 T02610201  RH  069%=      5-min Rain = 0
KTAS 231703Z 18021G26KT 26/20 A2989 RMK A01 T02600201  RH  070%=      5-min Rain = 0
KTAS 231704Z 17022G27KT 26/20 A2989 RMK A01 T02590200  RH  070%=      5-min Rain = 0
KTAS 231705Z 17021G27KT 26/20 A2989 RMK A01 T02580201  RH  071%=      5-min Rain = 0
KTAS 231706Z 17022KT 26/20 A2989 RMK A01 T02570200  RH  071%=      5-min Rain = 0
KTAS 231707Z 17021KT 26/20 A2989 RMK A01 T02570202  RH  071%=      5-min Rain = 0
KTAS 231708Z 17022KT 26/20 A2989 RMK A01 T02580202  RH  071%=      5-min Rain = 0
KTAS 231709Z 17023G29KT 26/20 A2989 RMK A01 T02580200  RH  070%=      5-min Rain = 0
KTAS 231710Z 17023KT 26/20 A2989 RMK A01 T02580200  RH  070%=      5-min Rain = 0
KTAS 231711Z 17021G28KT 26/20 A2989 RMK A01 T02570199  RH  070%=      5-min Rain = 0
KTAS 231712Z 17019G24KT 26/20 A2989 RMK A01 T02580202  RH  071%=      5-min Rain = 0
KTAS 231713Z 17020G25KT 26/20 A2989 RMK A01 T02610203  RH  071%=      5-min Rain = 0
KTAS 231714Z 18019KT 26/20 A2989 RMK A01 T02620203  RH  070%=      5-min Rain = 0
KTAS 231715Z 17018G26KT 27/21 A2989 RMK A01 T02650206  RH  070%=      5-min Rain = 0
KTAS 231716Z 16021KT 27/20 A2989 RMK A01 T02650202  RH  069%=      5-min Rain = 0
KTAS 231717Z 17022G28KT 26/20 A2989 RMK A01 T02640202  RH  069%=      5-min Rain = 0
KTAS 231718Z 17022G27KT 26/20 A299 RMK A01 T02620200  RH  069%=      5-min Rain = 0
KTAS 231719Z 18021KT 26/20 A299 RMK A01 T02600201  RH  070%=      5-min Rain = 0
KTAS 231720Z 18022G27KT 26/20 A299 RMK A01 T02600202  RH  070%=      5-min Rain = 0
KTAS 231721Z 18021KT 26/20 A299 RMK A01 T02600201  RH  070%=      5-min Rain = 0
KTAS 231722Z 16019G26KT 26/20 A299 RMK A01 T02620204  RH  070%=      5-min Rain = 0
KTAS 231723Z 16023G28KT 26/20 A299 RMK A01 T02620202  RH  069%=      5-min Rain = 0
KTAS 231724Z 16022G27KT 26/20 A299 RMK A01 T02620201  RH  069%=      5-min Rain = 0
KTAS 231725Z 17018G25KT 26/20 A299 RMK A01 T02620202  RH  070%=      5-min Rain = 0
KTAS 231726Z 17019KT 26/20 A299 RMK A01 T02620202  RH  070%=      5-min Rain = 0
KTAS 231727Z 16023G28KT 26/20 A299 RMK A01 T02620202  RH  069%=      5-min Rain = 0
KTAS 231728Z 17022KT 26/20 A299 RMK A01 T02640200  RH  068%=      5-min Rain = 0
KTAS 231729Z 17019G24KT 27/20 A299 RMK A01 T02670204  RH  068%=      5-min Rain = 0
KTAS 231730Z 17022KT 27/20 A299 RMK A01 T02690204  RH  067%=      5-min Rain = 0
KTAS 231731Z 17023KT 27/20 A299 RMK A01 T02680203  RH  067%=      5-min Rain = 0
KTAS 231732Z 17020KT 27/20 A2989 RMK A01 T02670203  RH  068%=      5-min Rain = 0
KTAS 231733Z 16016KT 27/21 A2989 RMK A01 T02670206  RH  069%=      5-min Rain = 0
KTAS 231734Z 17021KT 27/21 A2989 RMK A01 T02700206  RH  068%=      5-min Rain = 0
KTAS 231735Z 17017KT 27/20 A2989 RMK A01 T02690203  RH  067%=      5-min Rain = 0
KTAS 231736Z 16020G25KT 27/21 A2989 RMK A01 T02700205  RH  067%=      5-min Rain = 0
KTAS 231737Z 16020G25KT 27/20 A2989 RMK A01 T02710203  RH  066%=      5-min Rain = 0
KTAS 231738Z 17019KT 27/20 A2989 RMK A01 T02710203  RH  067%=      5-min Rain = 0
KTAS 231739Z 17019G24KT 27/21 A2989 RMK A01 T02730205  RH  067%=      5-min Rain = 0
KTAS 231740Z 18019KT 27/20 A2989 RMK A01 T02720201  RH  065%=      5-min Rain = 0
KTAS 231741Z 17020G25KT 27/20 A2989 RMK A01 T02700202  RH  066%=      5-min Rain = 0
KTAS 231742Z 17022KT 27/20 A2989 RMK A01 T02690201  RH  066%=      5-min Rain = 0
KTAS 231743Z 17019KT 27/20 A2989 RMK A01 T02690203  RH  067%=      5-min Rain = 0
KTAS 231744Z 17020G26KT 27/20 A2989 RMK A01 T02690202  RH  067%=      5-min Rain = 0
KTAS 231745Z 16019G24KT 27/20 A2989 RMK A01 T02680202  RH  067%=      5-min Rain = 0
KTAS 231746Z 16019G26KT 27/20 A2989 RMK A01 T02700204  RH  067%=      5-min Rain = 0
KTAS 231747Z 17019G24KT 27/20 A2989 RMK A01 T02720202  RH  066%=      5-min Rain = 0
KTAS 231748Z 17023KT 27/20 A2989 RMK A01 T02720201  RH  065%=      5-min Rain = 0
KTAS 231749Z 18019KT 27/20 A2989 RMK A01 T02720200  RH  065%=      5-min Rain = 0
KTAS 231750Z 17021KT 27/20 A2988 RMK A01 T02730201  RH  065%=      5-min Rain = 0
KTAS 231751Z 16020G27KT 28/21 A2989 RMK A01 T02750205  RH  066%=      5-min Rain = 0
KTAS 231752Z 16021G27KT 27/20 A2989 RMK A01 T02740203  RH  065%=      5-min Rain = 0
KTAS 231753Z 18021G26KT 28/20 A2989 RMK A01 T02750201  RH  064%=      5-min Rain = 0
KTAS 231754Z 16020G25KT 27/20 A2989 RMK A01 T02740201  RH  064%=      5-min Rain = 0
KTAS 231755Z 16023KT 27/20 A2989 RMK A01 T02720201  RH  065%=      5-min Rain = 0
KTAS 231756Z 16019KT 27/20 A2989 RMK A01 T02700201  RH  066%=      5-min Rain = 0
KTAS 231757Z 17020KT 27/20 A2989 RMK A01 T02680201  RH  067%=      5-min Rain = 0
KTAS 231758Z 16019G24KT 27/20 A2989 RMK A01 T02680202  RH  067%=      5-min Rain = 0
KTAS 231759Z 16021G26KT 27/20 A2989 RMK A01 T02710202  RH  066%=      5-min Rain = 0
KTAS 231800Z 16020KT 27/20 A2989 RMK A01 T02720201  RH  065%=      5-min Rain = 0
KTAS 231801Z 16019KT 27/20 A2989 RMK A01 T02730202  RH  065%=      5-min Rain = 0
KTAS 231802Z 16019KT 27/20 A2989 RMK A01 T02740204  RH  065%=      5-min Rain = 0
KTAS 231803Z 17017KT 27/20 A2989 RMK A01 T02740204  RH  065%=      5-min Rain = 0
KTAS 231804Z 16018G23KT 27/20 A2988 RMK A01 T02730204  RH  066%=      5-min Rain = 0
KTAS 231805Z 17020KT 27/20 A2989 RMK A01 T02730204  RH  066%=      5-min Rain = 0
KTAS 231806Z 16019KT 27/20 A2988 RMK A01 T02710200  RH  065%=      5-min Rain = 0
KTAS 231807Z 16017KT 27/20 A2988 RMK A01 T02690201  RH  066%=      5-min Rain = 0
KTAS 231808Z 17021G26KT 27/20 A2988 RMK A01 T02700202  RH  066%=      5-min Rain = 0
KTAS 231809Z 16019KT 27/20 A2988 RMK A01 T02690202  RH  067%=      5-min Rain = 0
KTAS 231810Z 16021G26KT 27/20 A2988 RMK A01 T02680201  RH  066%=      5-min Rain = 0
KTAS 231811Z 16021KT 27/20 A2988 RMK A01 T02670198  RH  066%=      5-min Rain = 0
KTAS 231812Z 16020KT 27/20 A2988 RMK A01 T02680200  RH  066%=      5-min Rain = 0
KTAS 231813Z 15020KT 27/20 A2988 RMK A01 T02690200  RH  066%=      5-min Rain = 0
KTAS 231814Z 15020G25KT 27/20 A2988 RMK A01 T02680199  RH  066%=      5-min Rain = 0
KTAS 231815Z 16021KT 27/20 A2988 RMK A01 T02680199  RH  066%=      5-min Rain = 0
KTAS 231816Z 16020KT 27/20 A2988 RMK A01 T02700201  RH  066%=      5-min Rain = 0
KTAS 231817Z 17018KT 27/20 A2988 RMK A01 T02720202  RH  065%=      5-min Rain = 0
KTAS 231818Z 16018G23KT 27/20 A2988 RMK A01 T02720202  RH  065%=      5-min Rain = 0
KTAS 231819Z 16019G25KT 27/20 A2988 RMK A01 T02710200  RH  065%=      5-min Rain = 0
KTAS 231820Z 16021G26KT 27/20 A2988 RMK A01 T02700199  RH  065%=      5-min Rain = 0
KTAS 231821Z 15019KT 27/20 A2988 RMK A01 T02720200  RH  065%=      5-min Rain = 0
KTAS 231822Z 17017G24KT 28/20 A2988 RMK A01 T02760204  RH  065%=      5-min Rain = 0
KTAS 231823Z 16022KT 28/20 A2988 RMK A01 T02770200  RH  063%=      5-min Rain = 0
KTAS 231824Z 17023KT 28/20 A2988 RMK A01 T02770199  RH  062%=      5-min Rain = 0
KTAS 231825Z 17019KT 28/20 A2988 RMK A01 T02770200  RH  063%=      5-min Rain = 0
KTAS 231826Z 15017KT 28/20 A2988 RMK A01 T02790201  RH  063%=      5-min Rain = 0
KTAS 231827Z 17015KT 28/20 A2988 RMK A01 T02790201  RH  063%=      5-min Rain = 0
KTAS 231828Z 16018G25KT 28/20 A2988 RMK A01 T02780202  RH  063%=      5-min Rain = 0
KTAS 231829Z 15019G25KT 28/20 A2988 RMK A01 T02770198  RH  062%=      5-min Rain = 0
KTAS 231830Z 17022KT 28/20 A2987 RMK A01 T02770198  RH  062%=      5-min Rain = 0
KTAS 231831Z 18019KT 28/20 A2987 RMK A01 T02760197  RH  062%=      5-min Rain = 0
KTAS 231832Z 17018KT 27/20 A2987 RMK A01 T02730196  RH  063%=      5-min Rain = 0
KTAS 231833Z 16020KT 27/20 A2987 RMK A01 T02740200  RH  064%=      5-min Rain = 0
KTAS 231834Z 16020KT 28/20 A2987 RMK A01 T02750201  RH  064%=      5-min Rain = 0
KTAS 231835Z 15020KT 28/20 A2987 RMK A01 T02760203  RH  065%=      5-min Rain = 0
KTAS 231836Z 15018KT 28/21 A2987 RMK A01 T02790206  RH  064%=      5-min Rain = 0
KTAS 231837Z 16021G26KT 28/20 A2987 RMK A01 T02780202  RH  063%=      5-min Rain = 0
KTAS 231838Z 16021KT 28/20 A2987 RMK A01 T02750200  RH  064%=      5-min Rain = 0
KTAS 231839Z 16022KT 28/20 A2987 RMK A01 T02750202  RH  065%=      5-min Rain = 0
KTAS 231840Z 16023KT 28/20 A2987 RMK A01 T02770202  RH  064%=      5-min Rain = 0
KTAS 231841Z 16021KT 28/20 A2987 RMK A01 T02760200  RH  063%=      5-min Rain = 0
KTAS 231842Z 16020KT 28/20 A2987 RMK A01 T02750200  RH  064%=      5-min Rain = 0
KTAS 231843Z 17021G26KT 28/20 A2987 RMK A01 T02770202  RH  064%=      5-min Rain = 0
KTAS 231844Z 16018G24KT 28/20 A2987 RMK A01 T02770202  RH  064%=      5-min Rain = 0
KTAS 231845Z 15022KT 28/20 A2987 RMK A01 T02750199  RH  063%=      5-min Rain = 0
KTAS 231846Z 17018KT 27/20 A2987 RMK A01 T02740198  RH  063%=      5-min Rain = 0
KTAS 231847Z 17018KT 27/20 A2987 RMK A01 T02720196  RH  063%=      5-min Rain = 0
KTAS 231848Z 16020G26KT 27/20 A2987 RMK A01 T02720199  RH  064%=      5-min Rain = 0
KTAS 231849Z 15019G24KT 28/20 A2987 RMK A01 T02760203  RH  064%=      5-min Rain = 0
KTAS 231850Z 16021KT 28/20 A2987 RMK A01 T02780201  RH  063%=      5-min Rain = 0
KTAS 231851Z 15022G28KT 28/20 A2987 RMK A01 T02790202  RH  063%=      5-min Rain = 0
KTAS 231852Z 16019G25KT 28/20 A2987 RMK A01 T02800199  RH  062%=      5-min Rain = 0
KTAS 231853Z 16017G22KT 28/20 A2987 RMK A01 T02790199  RH  061%=      5-min Rain = 0
KTAS 231854Z 16018KT 28/20 A2987 RMK A01 T02790201  RH  062%=      5-min Rain = 0
KTAS 231855Z 16022KT 28/20 A2987 RMK A01 T02760197  RH  062%=      5-min Rain = 0
KTAS 231856Z 16019KT 28/20 A2987 RMK A01 T02750198  RH  063%=      5-min Rain = 0
KTAS 231857Z 16018KT 28/20 A2987 RMK A01 T02750199  RH  063%=      5-min Rain = 0
KTAS 231858Z 15024G30KT 28/20 A2987 RMK A01 T02760200  RH  063%=      5-min Rain = 0
KTAS 231859Z 15022G28KT 27/20 A2987 RMK A01 T02740198  RH  063%=      5-min Rain = 0
KTAS 231900Z 15016G21KT 28/20 A2987 RMK A01 T02750201  RH  064%=      5-min Rain = 0
KTAS 231901Z 16020G25KT 28/20 A2987 RMK A01 T02780200  RH  063%=      5-min Rain = 0
KTAS 231902Z 17020KT 28/20 A2987 RMK A01 T02770197  RH  062%=      5-min Rain = 0
KTAS 231903Z 17021KT 28/20 A2987 RMK A01 T02760199  RH  063%=      5-min Rain = 0
KTAS 231904Z 16020KT 28/20 A2987 RMK A01 T02760198  RH  062%=      5-min Rain = 0
KTAS 231905Z 16017KT 27/20 A2987 RMK A01 T02740196  RH  063%=      5-min Rain = 0
KTAS 231906Z 16020KT 27/20 A2987 RMK A01 T02740198  RH  063%=      5-min Rain = 0
KTAS 231907Z 16018KT 28/20 A2987 RMK A01 T02760200  RH  063%=      5-min Rain = 0
KTAS 231908Z 16018KT 28/20 A2987 RMK A01 T02780201  RH  063%=      5-min Rain = 0
KTAS 231909Z 16018G25KT 28/20 A2987 RMK A01 T02810203  RH  063%=      5-min Rain = 0
KTAS 231910Z 17020KT 28/20 A2987 RMK A01 T02820200  RH  061%=      5-min Rain = 0
KTAS 231911Z 16021G27KT 28/20 A2987 RMK A01 T02820200  RH  061%=      5-min Rain = 0
KTAS 231912Z 16022G28KT 28/20 A2987 RMK A01 T02820198  RH  060%=      5-min Rain = 0
KTAS 231913Z 16019KT 28/20 A2987 RMK A01 T02830200  RH  061%=      5-min Rain = 0
KTAS 231914Z 17018G23KT 28/20 A2987 RMK A01 T02820199  RH  061%=      5-min Rain = 0
KTAS 231915Z 16019G26KT 28/20 A2987 RMK A01 T02810200  RH  062%=      5-min Rain = 0
KTAS 231916Z 17023KT 28/20 A2987 RMK A01 T02820198  RH  060%=      5-min Rain = 0
KTAS 231917Z 16020KT 28/20 A2987 RMK A01 T02810195  RH  060%=      5-min Rain = 0
KTAS 231918Z 16019KT 28/20 A2987 RMK A01 T02800197  RH  061%=      5-min Rain = 0
KTAS 231919Z 15023KT 28/20 A2987 RMK A01 T02790196  RH  061%=      5-min Rain = 0
KTAS 231920Z 16019KT 28/20 A2987 RMK A01 T02780195  RH  061%=      5-min Rain = 0
KTAS 231921Z 16021KT 28/20 A2987 RMK A01 T02780196  RH  061%=      5-min Rain = 0
KTAS 231922Z 16018KT 28/20 A2986 RMK A01 T02770197  RH  062%=      5-min Rain = 0
KTAS 231923Z 16019KT 28/20 A2986 RMK A01 T02780196  RH  061%=      5-min Rain = 0
KTAS 231924Z 16024KT 28/20 A2986 RMK A01 T02790195  RH  060%=      5-min Rain = 0
KTAS 231925Z 16024KT 28/20 A2987 RMK A01 T02790195  RH  060%=      5-min Rain = 0
KTAS 231926Z 16019KT 28/20 A2987 RMK A01 T02800195  RH  060%=      5-min Rain = 0
KTAS 231927Z 16019G25KT 28/19 A2987 RMK A01 T02800194  RH  060%=      5-min Rain = 0
KTAS 231928Z 17023G28KT 28/19 A2986 RMK A01 T02800194  RH  060%=      5-min Rain = 0
KTAS 231929Z 16020G25KT 28/20 A2986 RMK A01 T02810196  RH  060%=      5-min Rain = 0
KTAS 231930Z 17024G30KT 28/20 A2986 RMK A01 T02830196  RH  059%=      5-min Rain = 0
KTAS 231931Z 17021KT 28/20 A2986 RMK A01 T02830195  RH  059%=      5-min Rain = 0
KTAS 231932Z 17019G25KT 28/20 A2986 RMK A01 T02840196  RH  059%=      5-min Rain = 0
KTAS 231933Z 17022KT 29/19 A2986 RMK A01 T02850193  RH  058%=      5-min Rain = 0
KTAS 231934Z 16019KT 28/19 A2986 RMK A01 T02840193  RH  058%=      5-min Rain = 0
KTAS 231935Z 16019KT 28/19 A2986 RMK A01 T02830193  RH  058%=      5-min Rain = 0
KTAS 231936Z 16020G25KT 28/19 A2986 RMK A01 T02800193  RH  059%=      5-min Rain = 0
KTAS 231937Z 17021G26KT 28/19 A2986 RMK A01 T02800188  RH  058%=      5-min Rain = 0
KTAS 231938Z 17017KT 28/19 A2986 RMK A01 T02780188  RH  058%=      5-min Rain = 0
KTAS 231939Z 16019KT 28/19 A2986 RMK A01 T02790189  RH  058%=      5-min Rain = 0
KTAS 231940Z 17020G26KT 28/19 A2986 RMK A01 T02800188  RH  057%=      5-min Rain = 0
KTAS 231941Z 17017KT 28/19 A2986 RMK A01 T02800191  RH  058%=      5-min Rain = 0
KTAS 231942Z 16019G27KT 28/19 A2986 RMK A01 T02830193  RH  058%=      5-min Rain = 0
KTAS 231943Z 17020KT 29/19 A2986 RMK A01 T02860191  RH  057%=      5-min Rain = 0
KTAS 231944Z 17018G23KT 29/19 A2986 RMK A01 T02860191  RH  056%=      5-min Rain = 0
KTAS 231945Z 16020G25KT 29/19 A2986 RMK A01 T02860189  RH  056%=      5-min Rain = 0
KTAS 231946Z 17022KT 29/19 A2986 RMK A01 T02850189  RH  056%=      5-min Rain = 0
KTAS 231947Z 16021G26KT 28/19 A2986 RMK A01 T02830189  RH  056%=      5-min Rain = 0
KTAS 231948Z 17018KT 28/19 A2986 RMK A01 T02830192  RH  058%=      5-min Rain = 0
KTAS 231949Z 17019KT 29/20 A2986 RMK A01 T02860195  RH  058%=      5-min Rain = 0
KTAS 231950Z 17021G26KT 29/19 A2986 RMK A01 T02870193  RH  057%=      5-min Rain = 0
KTAS 231951Z 18022G27KT 29/19 A2986 RMK A01 T02880194  RH  057%=      5-min Rain = 0
KTAS 231952Z 18022KT 29/19 A2986 RMK A01 T02880193  RH  057%=      5-min Rain = 0
KTAS 231953Z 17021G26KT 29/19 A2986 RMK A01 T02880193  RH  057%=      5-min Rain = 0
KTAS 231954Z 16019KT 29/20 A2986 RMK A01 T02890196  RH  057%=      5-min Rain = 0
KTAS 231955Z 15019KT 29/20 A2986 RMK A01 T02890195  RH  057%=      5-min Rain = 0
KTAS 231956Z 16016KT 29/20 A2986 RMK A01 T02880197  RH  058%=      5-min Rain = 0
KTAS 231957Z 17016G25KT 29/20 A2986 RMK A01 T02890197  RH  058%=      5-min Rain = 0
KTAS 231958Z 18020KT 29/19 A2986 RMK A01 T02900193  RH  056%=      5-min Rain = 0
KTAS 231959Z 17020KT 29/19 A2986 RMK A01 T02890194  RH  056%=      5-min Rain = 0
KTAS 232000Z 17019KT 29/19 A2986 RMK A01 T02880194  RH  057%=      5-min Rain = 0
KTAS 232001Z 17017KT 29/20 A2986 RMK A01 T02860195  RH  058%=      5-min Rain = 0
KTAS 232002Z 17022G29KT 28/19 A2986 RMK A01 T02830193  RH  058%=      5-min Rain = 0
KTAS 232003Z 16021KT 28/19 A2986 RMK A01 T02800192  RH  059%=      5-min Rain = 0
KTAS 232004Z 16020G27KT 28/19 A2986 RMK A01 T02810193  RH  059%=      5-min Rain = 0
KTAS 232005Z 16020G27KT 28/19 A2986 RMK A01 T02840194  RH  058%=      5-min Rain = 0
KTAS 232006Z 16022KT 29/19 A2986 RMK A01 T02870192  RH  057%=      5-min Rain = 0
KTAS 232007Z 16026KT 29/19 A2986 RMK A01 T02860190  RH  056%=      5-min Rain = 0
KTAS 232008Z 17022G28KT 29/19 A2986 RMK A01 T02850190  RH  056%=      5-min Rain = 0
KTAS 232009Z 17019KT 29/19 A2986 RMK A01 T02850193  RH  057%=      5-min Rain = 0
KTAS 232010Z 17021KT 29/19 A2986 RMK A01 T02850191  RH  057%=      5-min Rain = 0
KTAS 232011Z 16019G24KT 29/19 A2986 RMK A01 T02850191  RH  057%=      5-min Rain = 0
KTAS 232012Z 16021G27KT 29/19 A2986 RMK A01 T02880194  RH  057%=      5-min Rain = 0
KTAS 232013Z 16020G25KT 29/20 A2986 RMK A01 T02900195  RH  056%=      5-min Rain = 0
KTAS 232014Z 17020KT 29/19 A2986 RMK A01 T02900192  RH  055%=      5-min Rain = 0
KTAS 232015Z 16024KT 29/19 A2986 RMK A01 T02890191  RH  056%=      5-min Rain = 0
KTAS 232016Z 17021G26KT 29/19 A2986 RMK A01 T02880193  RH  056%=      5-min Rain = 0
KTAS 232017Z 17022G27KT 29/19 A2986 RMK A01 T02880193  RH  056%=      5-min Rain = 0
KTAS 232018Z 18023KT 29/19 A2985 RMK A01 T02890189  RH  055%=      5-min Rain = 0
KTAS 232019Z 17022KT 29/19 A2985 RMK A01 T02900189  RH  055%=      5-min Rain = 0
KTAS 232020Z 17019G24KT 29/19 A2986 RMK A01 T02900192  RH  055%=      5-min Rain = 0
KTAS 232021Z 17021KT 29/19 A2985 RMK A01 T02900192  RH  056%=      5-min Rain = 0
KTAS 232022Z 17020KT 29/19 A2985 RMK A01 T02890193  RH  056%=      5-min Rain = 0
KTAS 232023Z 18022KT 29/19 A2985 RMK A01 T02900192  RH  055%=      5-min Rain = 0
KTAS 232024Z 18021G26KT 29/19 A2985 RMK A01 T02910192  RH  055%=      5-min Rain = 0
KTAS 232025Z 18019G27KT 29/19 A2985 RMK A01 T02920191  RH  055%=      5-min Rain = 0
KTAS 232026Z 18016KT 29/19 A2985 RMK A01 T02930194  RH  055%=      5-min Rain = 0
KTAS 232027Z 17016KT 30/19 A2985 RMK A01 T02950194  RH  055%=      5-min Rain = 0
KTAS 232028Z 17019G24KT 30/19 A2985 RMK A01 T02950193  RH  054%=      5-min Rain = 0
KTAS 232029Z 17020G26KT 29/19 A2985 RMK A01 T02940191  RH  054%=      5-min Rain = 0
KTAS 232030Z 17017KT 29/19 A2985 RMK A01 T02940194  RH  055%=      5-min Rain = 0
KTAS 232031Z 17019KT 30/19 A2985 RMK A01 T02950192  RH  054%=      5-min Rain = 0
KTAS 232032Z 18020G26KT 29/19 A2985 RMK A01 T02930189  RH  053%=      5-min Rain = 0
KTAS 232033Z 17018G23KT 29/19 A2985 RMK A01 T02920191  RH  054%=      5-min Rain = 0
KTAS 232034Z 16014KT 29/20 A2985 RMK A01 T02940198  RH  056%=      5-min Rain = 0
KTAS 232035Z 16020G26KT 30/20 A2985 RMK A01 T02970198  RH  055%=      5-min Rain = 0
KTAS 232036Z 16021G26KT 30/20 A2985 RMK A01 T02960196  RH  055%=      5-min Rain = 0
KTAS 232037Z 16020KT 30/20 A2985 RMK A01 T02950196  RH  055%=      5-min Rain = 0
KTAS 232038Z 16020G27KT 29/20 A2985 RMK A01 T02940196  RH  055%=      5-min Rain = 0
KTAS 232039Z 17021G26KT 29/19 A2985 RMK A01 T02930194  RH  055%=      5-min Rain = 0
KTAS 232040Z 17019KT 29/19 A2985 RMK A01 T02920193  RH  055%=      5-min Rain = 0
KTAS 232041Z 17019KT 29/19 A2985 RMK A01 T02910190  RH  054%=      5-min Rain = 0
KTAS 232042Z 17018G23KT 29/19 A2985 RMK A01 T02920193  RH  055%=      5-min Rain = 0
KTAS 232043Z 17022G27KT 29/20 A2985 RMK A01 T02920195  RH  056%=      5-min Rain = 0
KTAS 232044Z 17023KT 29/19 A2985 RMK A01 T02920192  RH  055%=      5-min Rain = 0
KTAS 232045Z 16022KT 29/19 A2985 RMK A01 T02910191  RH  055%=      5-min Rain = 0
KTAS 232046Z 17019G25KT 29/19 A2985 RMK A01 T02910191  RH  055%=      5-min Rain = 0
KTAS 232047Z 16019KT 29/19 A2985 RMK A01 T02900191  RH  055%=      5-min Rain = 0
KTAS 232048Z 17018KT 29/19 A2985 RMK A01 T02900192  RH  056%=      5-min Rain = 0
KTAS 232049Z 17020G25KT 29/19 A2985 RMK A01 T02910194  RH  056%=      5-min Rain = 0
KTAS 232050Z 16018KT 29/20 A2985 RMK A01 T02930196  RH  056%=      5-min Rain = 0
KTAS 232051Z 16019G24KT 29/20 A2985 RMK A01 T02940196  RH  056%=      5-min Rain = 0
KTAS 232052Z 16019KT 29/20 A2985 RMK A01 T02940196  RH  055%=      5-min Rain = 0
KTAS 232053Z 15016G24KT 29/20 A2985 RMK A01 T02920195  RH  056%=      5-min Rain = 0
KTAS 232054Z 15021G29KT 29/19 A2985 RMK A01 T02930194  RH  055%=      5-min Rain = 0
KTAS 232055Z 15023KT 29/19 A2985 RMK A01 T02930193  RH  055%=      5-min Rain = 0
KTAS 232056Z 16024KT 29/19 A2985 RMK A01 T02920191  RH  054%=      5-min Rain = 0
KTAS 232057Z 17021G26KT 29/19 A2985 RMK A01 T02910190  RH  055%=      5-min Rain = 0
KTAS 232058Z 16022KT 29/19 A2985 RMK A01 T02900191  RH  055%=      5-min Rain = 0
KTAS 232059Z 16021G26KT 29/19 A2984 RMK A01 T02890191  RH  055%=      5-min Rain = 0
KTAS 232100Z 16022G27KT 29/19 A2984 RMK A01 T02890191  RH  056%=      5-min Rain = 0
KTAS 232101Z 15017G23KT 29/19 A2984 RMK A01 T02890193  RH  056%=      5-min Rain = 0
KTAS 232102Z 16020G25KT 29/19 A2984 RMK A01 T02900192  RH  056%=      5-min Rain = 0
KTAS 232103Z 16020KT 29/19 A2984 RMK A01 T02910193  RH  055%=      5-min Rain = 0
KTAS 232104Z 17019KT 29/19 A2984 RMK A01 T02920192  RH  055%=      5-min Rain = 0
KTAS 232105Z 17019KT 29/19 A2984 RMK A01 T02920193  RH  055%=      5-min Rain = 0
KTAS 232106Z 16021KT 29/19 A2984 RMK A01 T02910190  RH  054%=      5-min Rain = 0
KTAS 232107Z 16019KT 29/19 A2984 RMK A01 T02910188  RH  054%=      5-min Rain = 0
KTAS 232108Z 16019G25KT 29/19 A2984 RMK A01 T02920191  RH  055%=      5-min Rain = 0
KTAS 232109Z 15020G26KT 29/19 A2984 RMK A01 T02930191  RH  054%=      5-min Rain = 0
KTAS 232110Z 16019KT 29/19 A2984 RMK A01 T02940192  RH  054%=      5-min Rain = 0
KTAS 232111Z 17021KT 29/19 A2984 RMK A01 T02930192  RH  054%=      5-min Rain = 0
KTAS 232112Z 17021KT 29/19 A2984 RMK A01 T02930192  RH  055%=      5-min Rain = 0
KTAS 232113Z 16017KT 29/19 A2984 RMK A01 T02920193  RH  055%=      5-min Rain = 0
KTAS 232114Z 16021G26KT 29/20 A2984 RMK A01 T02940195  RH  055%=      5-min Rain = 0
KTAS 232115Z 16018KT 29/19 A2984 RMK A01 T02940192  RH  054%=      5-min Rain = 0
KTAS 232116Z 16020G25KT 29/19 A2984 RMK A01 T02940193  RH  055%=      5-min Rain = 0
KTAS 232117Z 15020G25KT 29/19 A2984 RMK A01 T02930189  RH  053%=      5-min Rain = 0
KTAS 232118Z 16019G24KT 29/19 A2984 RMK A01 T02940190  RH  054%=      5-min Rain = 0
KTAS 232119Z 16018G23KT 29/19 A2984 RMK A01 T02940192  RH  054%=      5-min Rain = 0
KTAS 232120Z 16019KT 29/19 A2984 RMK A01 T02930192  RH  054%=      5-min Rain = 0
KTAS 232121Z 17016KT 30/20 A2984 RMK A01 T02950197  RH  055%=      5-min Rain = 0
KTAS 232122Z 15022KT 30/20 A2984 RMK A01 T02970196  RH  055%=      5-min Rain = 0
KTAS 232123Z 16021KT 30/20 A2984 RMK A01 T02950195  RH  055%=      5-min Rain = 0
KTAS 232124Z 15021KT 29/19 A2984 RMK A01 T02930194  RH  055%=      5-min Rain = 0
KTAS 232125Z 16021KT 29/19 A2984 RMK A01 T02930193  RH  055%=      5-min Rain = 0
KTAS 232126Z 16022G27KT 29/19 A2984 RMK A01 T02920193  RH  055%=      5-min Rain = 0
KTAS 232127Z 15021KT 29/19 A2984 RMK A01 T02920192  RH  055%=      5-min Rain = 0
KTAS 232128Z 15019KT 29/19 A2984 RMK A01 T02920190  RH  054%=      5-min Rain = 0
KTAS 232129Z 16020KT 29/19 A2984 RMK A01 T02920193  RH  055%=      5-min Rain = 0
KTAS 232130Z 17022KT 29/19 A2984 RMK A01 T02920192  RH  055%=      5-min Rain = 0
KTAS 232131Z 17020KT 29/19 A2984 RMK A01 T02890190  RH  055%=      5-min Rain = 0
KTAS 232132Z 16021KT 29/19 A2984 RMK A01 T02890192  RH  056%=      5-min Rain = 0
KTAS 232133Z 16023KT 29/19 A2984 RMK A01 T02890191  RH  055%=      5-min Rain = 0
KTAS 232134Z 16021KT 29/19 A2984 RMK A01 T02900190  RH  055%=      5-min Rain = 0
KTAS 232135Z 16020KT 29/19 A2983 RMK A01 T02910191  RH  055%=      5-min Rain = 0
KTAS 232136Z 15021G27KT 29/19 A2983 RMK A01 T02920193  RH  055%=      5-min Rain = 0
KTAS 232137Z 15022G29KT 29/19 A2983 RMK A01 T02910192  RH  055%=      5-min Rain = 0
KTAS 232138Z 14022KT 29/19 A2983 RMK A01 T02890190  RH  055%=      5-min Rain = 0
KTAS 232139Z 14023G30KT 29/19 A2983 RMK A01 T02890190  RH  055%=      5-min Rain = 0
KTAS 232140Z 15025KT 29/19 A2983 RMK A01 T02890189  RH  055%=      5-min Rain = 0
KTAS 232141Z 15021KT 29/19 A2983 RMK A01 T02890191  RH  055%=      5-min Rain = 0
KTAS 232142Z 14018KT 29/19 A2983 RMK A01 T02900193  RH  056%=      5-min Rain = 0
KTAS 232143Z 15018G23KT 29/20 A2983 RMK A01 T02920195  RH  056%=      5-min Rain = 0
KTAS 232144Z 15021KT 29/19 A2983 RMK A01 T02930193  RH  055%=      5-min Rain = 0
KTAS 232145Z 15019G29KT 29/19 A2983 RMK A01 T02920194  RH  055%=      5-min Rain = 0
KTAS 232146Z 16019G25KT 29/19 A2983 RMK A01 T02920193  RH  055%=      5-min Rain = 0
KTAS 232147Z 16015G20KT 29/20 A2983 RMK A01 T02940197  RH  056%=      5-min Rain = 0
KTAS 232148Z 15019KT 30/20 A2983 RMK A01 T02950195  RH  055%=      5-min Rain = 0
KTAS 232149Z 15017KT 29/19 A2983 RMK A01 T02930193  RH  055%=      5-min Rain = 0
KTAS 232150Z 15017G23KT 29/20 A2983 RMK A01 T02930196  RH  056%=      5-min Rain = 0
KTAS 232151Z 16020G26KT 30/19 A2983 RMK A01 T02950194  RH  055%=      5-min Rain = 0
KTAS 232152Z 16021KT 29/19 A2983 RMK A01 T02930193  RH  055%=      5-min Rain = 0
KTAS 232153Z 16022G28KT 29/19 A2983 RMK A01 T02920192  RH  055%=      5-min Rain = 0
KTAS 232154Z 16019G26KT 29/19 A2983 RMK A01 T02920192  RH  055%=      5-min Rain = 0
KTAS 232155Z 17018G23KT 29/19 A2983 RMK A01 T02930193  RH  055%=      5-min Rain = 0
KTAS 232156Z 17018KT 29/19 A2983 RMK A01 T02920193  RH  055%=      5-min Rain = 0
KTAS 232157Z 15020KT 29/19 A2983 RMK A01 T02930189  RH  054%=      5-min Rain = 0
KTAS 232158Z 16020G25KT 29/19 A2983 RMK A01 T02930189  RH  054%=      5-min Rain = 0
KTAS 232159Z 16019G24KT 29/19 A2983 RMK A01 T02920191  RH  054%=      5-min Rain = 0
KTAS 232200Z 16019G25KT 29/19 A2983 RMK A01 T02920193  RH  055%=      5-min Rain = 0
KTAS 232201Z 15019KT 29/19 A2983 RMK A01 T02920193  RH  055%=      5-min Rain = 0
KTAS 232202Z 16021KT 29/19 A2983 RMK A01 T02910191  RH  055%=      5-min Rain = 0
KTAS 232203Z 15024G30KT 29/19 A2983 RMK A01 T02910191  RH  055%=      5-min Rain = 0
KTAS 232204Z 15019G25KT 29/19 A2983 RMK A01 T02910190  RH  055%=      5-min Rain = 0
KTAS 232205Z 15015KT 29/20 A2983 RMK A01 T02930195  RH  056%=      5-min Rain = 0
KTAS 232206Z 15023KT 29/19 A2983 RMK A01 T02940194  RH  055%=      5-min Rain = 0
KTAS 232207Z 16018KT 29/19 A2983 RMK A01 T02930191  RH  054%=      5-min Rain = 0
KTAS 232208Z 16019G25KT 29/19 A2983 RMK A01 T02930191  RH  054%=      5-min Rain = 0
KTAS 232209Z 16022G30KT 29/19 A2983 RMK A01 T02910191  RH  055%=      5-min Rain = 0
KTAS 232210Z 15021KT 29/19 A2983 RMK A01 T02910191  RH  055%=      5-min Rain = 0
KTAS 232211Z 14023KT 29/19 A2983 RMK A01 T02910186  RH  053%=      5-min Rain = 0
KTAS 232212Z 15023KT 29/19 A2983 RMK A01 T02920190  RH  054%=      5-min Rain = 0
KTAS 232213Z 15023KT 29/19 A2983 RMK A01 T02910191  RH  055%=      5-min Rain = 0
KTAS 232214Z 15019KT 29/19 A2983 RMK A01 T02890190  RH  055%=      5-min Rain = 0
KTAS 232215Z 14022KT 29/19 A2983 RMK A01 T02900189  RH  055%=      5-min Rain = 0
KTAS 232216Z 15019G24KT 29/19 A2983 RMK A01 T02910189  RH  054%=      5-min Rain = 0
KTAS 232217Z 15018G24KT 29/19 A2983 RMK A01 T02930193  RH  055%=      5-min Rain = 0
KTAS 232218Z 14023KT 29/19 A2983 RMK A01 T02930191  RH  054%=      5-min Rain = 0
KTAS 232219Z 14020KT 29/19 A2983 RMK A01 T02920191  RH  055%=      5-min Rain = 0
KTAS 232220Z 15020KT 29/19 A2983 RMK A01 T02920194  RH  055%=      5-min Rain = 0
KTAS 232221Z 14023KT 29/19 A2983 RMK A01 T02920190  RH  054%=      5-min Rain = 0
KTAS 232222Z 14019G24KT 29/19 A2983 RMK A01 T02910190  RH  054%=      5-min Rain = 0
KTAS 232223Z 15020KT 29/19 A2983 RMK A01 T02900190  RH  055%=      5-min Rain = 0
KTAS 232224Z 15020KT 29/19 A2983 RMK A01 T02900191  RH  055%=      5-min Rain = 0
KTAS 232225Z 15022G27KT 29/19 A2983 RMK A01 T02880192  RH  056%=      5-min Rain = 0
KTAS 232226Z 15020G25KT 29/19 A2983 RMK A01 T02850192  RH  057%=      5-min Rain = 0
KTAS 232227Z 15023G29KT 28/19 A2983 RMK A01 T02830191  RH  057%=      5-min Rain = 0
KTAS 232228Z 15022G27KT 28/19 A2983 RMK A01 T02810187  RH  057%=      5-min Rain = 0
KTAS 232229Z 15020G25KT 28/19 A2983 RMK A01 T02780188  RH  058%=      5-min Rain = 0
KTAS 232230Z 15020G25KT 28/19 A2983 RMK A01 T02770186  RH  058%=      5-min Rain = 0
KTAS 232231Z 16022KT 28/18 A2983 RMK A01 T02760183  RH  057%=      5-min Rain = 0
KTAS 232232Z 16021KT 28/18 A2983 RMK A01 T02760181  RH  056%=      5-min Rain = 0
KTAS 232233Z 15018KT 28/18 A2983 RMK A01 T02750182  RH  057%=      5-min Rain = 0
KTAS 232234Z 15016KT 28/18 A2983 RMK A01 T02750184  RH  058%=      5-min Rain = 0
KTAS 232235Z 15019KT 28/19 A2983 RMK A01 T02750186  RH  058%=      5-min Rain = 0
KTAS 232236Z 15018KT 28/19 A2983 RMK A01 T02750187  RH  059%=      5-min Rain = 0
KTAS 232237Z 14014G20KT 28/19 A2983 RMK A01 T02750189  RH  060%=      5-min Rain = 0
KTAS 232238Z 14018KT 27/19 A2983 RMK A01 T02740188  RH  059%=      5-min Rain = 0
KTAS 232239Z 15017KT 28/19 A2983 RMK A01 T02750187  RH  059%=      5-min Rain = 0
KTAS 232240Z 15015KT 28/19 A2983 RMK A01 T02750188  RH  059%=      5-min Rain = 0
KTAS 232241Z 15016KT 28/19 A2983 RMK A01 T02760189  RH  059%=      5-min Rain = 0
KTAS 232242Z 15016KT 28/19 A2983 RMK A01 T02760189  RH  059%=      5-min Rain = 0
KTAS 232243Z 15019KT 28/19 A2983 RMK A01 T02750187  RH  058%=      5-min Rain = 0
KTAS 232244Z 15015KT 28/19 A2983 RMK A01 T02750186  RH  058%=      5-min Rain = 0
KTAS 232245Z 15017KT 28/19 A2983 RMK A01 T02750187  RH  059%=      5-min Rain = 0
KTAS 232246Z 15020KT 28/19 A2983 RMK A01 T02750189  RH  060%=      5-min Rain = 0
KTAS 232247Z 14016KT 27/19 A2983 RMK A01 T02740191  RH  061%=      5-min Rain = 0
KTAS 232248Z 14016G23KT 27/19 A2983 RMK A01 T02740192  RH  061%=      5-min Rain = 0
KTAS 232249Z 14020KT 27/19 A2983 RMK A01 T02730192  RH  061%=      5-min Rain = 0
KTAS 232250Z 14020G26KT 27/19 A2983 RMK A01 T02720191  RH  061%=      5-min Rain = 0
KTAS 232251Z 13019G26KT 27/19 A2983 RMK A01 T02720192  RH  061%=      5-min Rain = 0
KTAS 232252Z 14021KT 27/19 A2983 RMK A01 T02720190  RH  061%=      5-min Rain = 0
KTAS 232253Z 14017KT 27/19 A2983 RMK A01 T02720190  RH  061%=      5-min Rain = 0
KTAS 232254Z 14016KT 27/19 A2983 RMK A01 T02720190  RH  061%=      5-min Rain = 0
KTAS 232255Z 14018G23KT 27/19 A2983 RMK A01 T02710189  RH  061%=      5-min Rain = 0
KTAS 232256Z 14017G22KT 27/19 A2983 RMK A01 T02710190  RH  061%=      5-min Rain = 0
KTAS 232257Z 14015KT 27/19 A2983 RMK A01 T02700190  RH  062%=      5-min Rain = 0
KTAS 232258Z 14015G21KT 27/19 A2983 RMK A01 T02700191  RH  062%=      5-min Rain = 0
KTAS 232259Z 13018KT 27/19 A2983 RMK A01 T02700191  RH  062%=      5-min Rain = 0
KTAS 232300Z 13018KT 27/19 A2983 RMK A01 T02690191  RH  062%=      5-min Rain = 0
KTAS 232301Z 13019G24KT 27/19 A2983 RMK A01 T02700192  RH  063%=      5-min Rain = 0
KTAS 232302Z 14018G25KT 27/19 A2983 RMK A01 T02690192  RH  062%=      5-min Rain = 0
KTAS 232303Z 14019KT 27/19 A2983 RMK A01 T02690191  RH  062%=      5-min Rain = 0
KTAS 232304Z 14016G21KT 27/19 A2983 RMK A01 T02690192  RH  062%=      5-min Rain = 0
KTAS 232305Z 14016G21KT 27/19 A2983 RMK A01 T02700191  RH  062%=      5-min Rain = 0
KTAS 232306Z 14019G24KT 27/19 A2983 RMK A01 T02700191  RH  062%=      5-min Rain = 0
KTAS 232307Z 14019KT 27/19 A2983 RMK A01 T02700190  RH  062%=      5-min Rain = 0
KTAS 232308Z 14020KT 27/19 A2983 RMK A01 T02700189  RH  061%=      5-min Rain = 0
KTAS 232309Z 14020KT 27/19 A2983 RMK A01 T02700190  RH  061%=      5-min Rain = 0
KTAS 232310Z 14020KT 27/19 A2983 RMK A01 T02700190  RH  061%=      5-min Rain = 0
KTAS 232311Z 14019KT 27/19 A2982 RMK A01 T02690190  RH  062%=      5-min Rain = 0
KTAS 232312Z 13019KT 27/19 A2982 RMK A01 T02690190  RH  062%=      5-min Rain = 0
KTAS 232313Z 13018G23KT 27/19 A2982 RMK A01 T02690189  RH  062%=      5-min Rain = 0
KTAS 232314Z 13016G23KT 27/19 A2982 RMK A01 T02680190  RH  062%=      5-min Rain = 0
KTAS 232315Z 13019G25KT 27/19 A2982 RMK A01 T02680189  RH  062%=      5-min Rain = 0
KTAS 232316Z 14021G26KT 27/19 A2982 RMK A01 T02680188  RH  062%=      5-min Rain = 0
KTAS 232317Z 14022KT 27/19 A2982 RMK A01 T02690188  RH  061%=      5-min Rain = 0
KTAS 232318Z 14019KT 27/19 A2982 RMK A01 T02690187  RH  061%=      5-min Rain = 0
KTAS 232319Z 14020KT 27/19 A2982 RMK A01 T02690186  RH  061%=      5-min Rain = 0
KTAS 232320Z 14021G27KT 27/19 A2982 RMK A01 T02690185  RH  060%=      5-min Rain = 0
KTAS 232321Z 14017G24KT 27/19 A2982 RMK A01 T02690187  RH  060%=      5-min Rain = 0
KTAS 232322Z 14021G26KT 27/19 A2982 RMK A01 T02690186  RH  061%=      5-min Rain = 0
KTAS 232323Z 14020G25KT 27/19 A2982 RMK A01 T02690186  RH  060%=      5-min Rain = 0
KTAS 232324Z 13018G24KT 27/19 A2982 RMK A01 T02690188  RH  061%=      5-min Rain = 0
KTAS 232325Z 13019KT 27/19 A2982 RMK A01 T02680190  RH  062%=      5-min Rain = 0
KTAS 232326Z 13018KT 27/19 A2982 RMK A01 T02670190  RH  063%=      5-min Rain = 0
KTAS 232327Z 14020G25KT 27/19 A2982 RMK A01 T02670191  RH  063%=      5-min Rain = 0
KTAS 232328Z 14020KT 27/19 A2982 RMK A01 T02670190  RH  063%=      5-min Rain = 0
KTAS 232329Z 13015G21KT 27/19 A2982 RMK A01 T02670192  RH  063%=      5-min Rain = 0
KTAS 232330Z 13019G24KT 27/19 A2982 RMK A01 T02660192  RH  064%=      5-min Rain = 0
KTAS 232331Z 13020G25KT 27/19 A2982 RMK A01 T02660191  RH  063%=      5-min Rain = 0
KTAS 232332Z 14019KT 27/19 A2982 RMK A01 T02660192  RH  064%=      5-min Rain = 0
KTAS 232333Z 13017G23KT 27/19 A2982 RMK A01 T02660192  RH  064%=      5-min Rain = 0
KTAS 232334Z 14016KT 27/19 A2982 RMK A01 T02660193  RH  064%=      5-min Rain = 0
KTAS 232335Z 14018G23KT 27/19 A2982 RMK A01 T02660193  RH  064%=      5-min Rain = 0
KTAS 232336Z 14024KT 27/19 A2982 RMK A01 T02660191  RH  064%=      5-min Rain = 0
KTAS 232337Z 13020G26KT 27/19 A2982 RMK A01 T02660191  RH  063%=      5-min Rain = 0
KTAS 232338Z 14021KT 27/19 A2982 RMK A01 T02660190  RH  063%=      5-min Rain = 0
KTAS 232339Z 14021KT 27/19 A2981 RMK A01 T02660190  RH  063%=      5-min Rain = 0
KTAS 232340Z 13017KT 27/19 A2981 RMK A01 T02660191  RH  063%=      5-min Rain = 0
KTAS 232341Z 13019KT 27/19 A2981 RMK A01 T02650192  RH  064%=      5-min Rain = 0
KTAS 232342Z 14021KT 27/19 A2981 RMK A01 T02650191  RH  064%=      5-min Rain = 0
KTAS 232343Z 13022G27KT 27/19 A2981 RMK A01 T02660191  RH  063%=      5-min Rain = 0
KTAS 232344Z 13020KT 27/19 A2981 RMK A01 T02660191  RH  063%=      5-min Rain = 0
KTAS 232345Z 13017KT 27/19 A2981 RMK A01 T02660191  RH  064%=      5-min Rain = 0
KTAS 232346Z 13019KT 27/19 A2981 RMK A01 T02650192  RH  064%=      5-min Rain = 0
KTAS 232347Z 13020KT 27/19 A2981 RMK A01 T02650192  RH  064%=      5-min Rain = 0
KTAS 232348Z 13019KT 27/19 A2981 RMK A01 T02650191  RH  064%=      5-min Rain = 0
KTAS 232349Z 13018G23KT 27/19 A2981 RMK A01 T02650191  RH  064%=      5-min Rain = 0
KTAS 232350Z 13020KT 27/19 A2981 RMK A01 T02650191  RH  064%=      5-min Rain = 0
KTAS 232351Z 13017G22KT 27/19 A2981 RMK A01 T02650191  RH  064%=      5-min Rain = 0
KTAS 232352Z 13019G24KT 26/19 A2981 RMK A01 T02640191  RH  064%=      5-min Rain = 0
KTAS 232353Z 13018G23KT 26/19 A2981 RMK A01 T02640190  RH  064%=      5-min Rain = 0
KTAS 232354Z 13019KT 26/19 A2981 RMK A01 T02640190  RH  064%=      5-min Rain = 0
KTAS 232355Z 13020G25KT 26/19 A2981 RMK A01 T02640190  RH  064%=      5-min Rain = 0
KTAS 232356Z 14022G27KT 26/19 A2981 RMK A01 T02640190  RH  064%=      5-min Rain = 0
KTAS 232357Z 14018G24KT 26/19 A2981 RMK A01 T02640190  RH  064%=      5-min Rain = 0
KTAS 232358Z 13018KT 26/19 A2981 RMK A01 T02640191  RH  064%=      5-min Rain = 0
KTAS 232359Z 14020G25KT 26/19 A2981 RMK A01 T02640190  RH  064%=      5-min Rain = 0
KTAS 240000Z 14021KT 26/19 A2981 RMK A01 T02640190  RH  064%=      5-min Rain = 0
KTAS 240001Z 14018KT 26/19 A2981 RMK A01 T02640190  RH  064%=      5-min Rain = 0
KTAS 240002Z 14018G24KT 26/19 A2981 RMK A01 T02640191  RH  064%=      5-min Rain = 0
KTAS 240003Z 14020G25KT 26/19 A2981 RMK A01 T02640190  RH  064%=      5-min Rain = 0
KTAS 240004Z 13020KT 27/19 A2981 RMK A01 T02650190  RH  063%=      5-min Rain = 0
KTAS 240005Z 14020G26KT 27/19 A2981 RMK A01 T02660190  RH  063%=      5-min Rain = 0
KTAS 240006Z 14021KT 27/19 A2981 RMK A01 T02680190  RH  062%=      5-min Rain = 0
KTAS 240007Z 13021KT 27/19 A298 RMK A01 T02690189  RH  062%=      5-min Rain = 0
KTAS 240008Z 13020G25KT 27/19 A298 RMK A01 T02690190  RH  062%=      5-min Rain = 0
KTAS 240009Z 14021G26KT 27/19 A298 RMK A01 T02690190  RH  062%=      5-min Rain = 0
KTAS 240010Z 13021KT 27/19 A298 RMK A01 T02690189  RH  061%=      5-min Rain = 0
KTAS 240011Z 13022KT 27/19 A298 RMK A01 T02700189  RH  061%=      5-min Rain = 0
KTAS 240012Z 13021KT 27/19 A298 RMK A01 T02710189  RH  061%=      5-min Rain = 0
KTAS 240013Z 14023KT 27/19 A298 RMK A01 T02710189  RH  061%=      5-min Rain = 0
KTAS 240014Z 14026KT 27/19 A298 RMK A01 T02710188  RH  060%=      5-min Rain = 0
KTAS 240015Z 14023KT 27/19 A298 RMK A01 T02720188  RH  060%=      5-min Rain = 0
KTAS 240016Z 14023KT 27/19 A2981 RMK A01 T02710188  RH  060%=      5-min Rain = 0
KTAS 240017Z 14022G29KT 27/19 A2981 RMK A01 T02700187  RH  060%=      5-min Rain = 0
KTAS 240018Z 14020KT 27/19 A2981 RMK A01 T02700187  RH  060%=      5-min Rain = 0
KTAS 240019Z 14021G28KT 27/19 A2981 RMK A01 T02690187  RH  061%=      5-min Rain = 0
KTAS 240020Z 14024G29KT 27/19 A2981 RMK A01 T02690187  RH  061%=      5-min Rain = 0
KTAS 240021Z 14022KT 27/19 A2981 RMK A01 T02700187  RH  061%=      5-min Rain = 0
KTAS 240022Z 14020G25KT 27/19 A2981 RMK A01 T02700187  RH  060%=      5-min Rain = 0
KTAS 240023Z 13016KT 27/19 A2981 RMK A01 T02700188  RH  061%=      5-min Rain = 0
KTAS 240024Z 14020G26KT 27/19 A2981 RMK A01 T02700188  RH  061%=      5-min Rain = 0
KTAS 240025Z 14016KT 27/19 A2981 RMK A01 T02690187  RH  061%=      5-min Rain = 0
KTAS 240026Z 14017G22KT 27/19 A2981 RMK A01 T02690188  RH  061%=      5-min Rain = 0
KTAS 240027Z 14019G26KT 27/19 A2981 RMK A01 T02690188  RH  061%=      5-min Rain = 0
KTAS 240028Z 14021G27KT 27/19 A2981 RMK A01 T02680187  RH  061%=      5-min Rain = 0
KTAS 240029Z 14021KT 27/19 A2981 RMK A01 T02680189  RH  062%=      5-min Rain = 0
KTAS 240030Z 14022G29KT 27/19 A2981 RMK A01 T02670188  RH  062%=      5-min Rain = 0
KTAS 240031Z 14018G25KT 27/19 A2981 RMK A01 T02670190  RH  063%=      5-min Rain = 0
KTAS 240032Z 14020KT 27/19 A2981 RMK A01 T02670190  RH  063%=      5-min Rain = 0
KTAS 240033Z 14021G26KT 27/19 A2981 RMK A01 T02660189  RH  063%=      5-min Rain = 0
KTAS 240034Z 14022KT 27/19 A2981 RMK A01 T02660189  RH  063%=      5-min Rain = 0
KTAS 240035Z 15019KT 27/19 A2982 RMK A01 T02660189  RH  063%=      5-min Rain = 0
KTAS 240036Z 14021KT 27/19 A2981 RMK A01 T02670190  RH  063%=      5-min Rain = 0
KTAS 240037Z 14019KT 27/19 A2981 RMK A01 T02670190  RH  063%=      5-min Rain = 0
KTAS 240038Z 13019G25KT 27/19 A2981 RMK A01 T02670190  RH  063%=      5-min Rain = 0
KTAS 240039Z 14021KT 27/19 A2981 RMK A01 T02670190  RH  063%=      5-min Rain = 0
KTAS 240040Z 14021G27KT 27/19 A2981 RMK A01 T02670189  RH  063%=      5-min Rain = 0
KTAS 240041Z 14024KT 27/19 A2981 RMK A01 T02660188  RH  062%=      5-min Rain = 0
KTAS 240042Z 14022G28KT 27/19 A2981 RMK A01 T02650187  RH  063%=      5-min Rain = 0
KTAS 240043Z 14023G28KT 26/19 A2981 RMK A01 T02630187  RH  063%=      5-min Rain = 0
KTAS 240044Z 14019G24KT 26/19 A2982 RMK A01 T02630188  RH  063%=      5-min Rain = 0
KTAS 240045Z 14022G27KT 26/19 A2981 RMK A01 T02620188  RH  064%=      5-min Rain = 0
KTAS 240046Z 14023KT 26/19 A2982 RMK A01 T02620187  RH  064%=      5-min Rain = 0
KTAS 240047Z 14021G27KT 26/19 A2981 RMK A01 T02620188  RH  064%=      5-min Rain = 0
KTAS 240048Z 14021KT 26/19 A2981 RMK A01 T02610187  RH  064%=      5-min Rain = 0
KTAS 240049Z 14022G27KT 26/19 A2981 RMK A01 T02610188  RH  064%=      5-min Rain = 0
KTAS 240050Z 14021KT 26/19 A2982 RMK A01 T02610188  RH  064%=      5-min Rain = 0
KTAS 240051Z 14022KT 26/19 A2982 RMK A01 T02600187  RH  064%=      5-min Rain = 0
KTAS 240052Z 14020G25KT 26/19 A2982 RMK A01 T02600188  RH  064%=      5-min Rain = 0
KTAS 240053Z 14020KT 26/19 A2982 RMK A01 T02600188  RH  064%=      5-min Rain = 0
KTAS 240054Z 14020G25KT 26/19 A2982 RMK A01 T02600188  RH  065%=      5-min Rain = 0
KTAS 240055Z 14021G26KT 26/19 A2982 RMK A01 T02590188  RH  065%=      5-min Rain = 0
KTAS 240056Z 14018KT 26/19 A2982 RMK A01 T02590188  RH  065%=      5-min Rain = 0
KTAS 240057Z 14018KT 26/19 A2982 RMK A01 T02580188  RH  065%=      5-min Rain = 0
KTAS 240058Z 14019G24KT 26/19 A2982 RMK A01 T02580188  RH  065%=      5-min Rain = 0
KTAS 240059Z 14021G27KT 26/19 A2982 RMK A01 T02580187  RH  065%=      5-min Rain = 0
KTAS 240100Z 14018KT 26/19 A2982 RMK A01 T02580187  RH  065%=      5-min Rain = 0
KTAS 240101Z 14018KT 26/19 A2982 RMK A01 T02570188  RH  065%=      5-min Rain = 0
KTAS 240102Z 14019G24KT 26/19 A2981 RMK A01 T02570188  RH  066%=      5-min Rain = 0
KTAS 240103Z 14022KT 26/19 A2981 RMK A01 T02570187  RH  065%=      5-min Rain = 0
KTAS 240104Z 14019G27KT 26/19 A2981 RMK A01 T02570187  RH  065%=      5-min Rain = 0
KTAS 240105Z 14020G25KT 26/19 A2981 RMK A01 T02560187  RH  066%=      5-min Rain = 0
KTAS 240106Z 14021KT 26/19 A2981 RMK A01 T02560187  RH  066%=      5-min Rain = 0
KTAS 240107Z 14020G25KT 26/19 A2981 RMK A01 T02560187  RH  066%=      5-min Rain = 0
KTAS 240108Z 14020KT 26/19 A2981 RMK A01 T02560187  RH  066%=      5-min Rain = 0
KTAS 240109Z 14019G24KT 26/19 A2981 RMK A01 T02560187  RH  066%=      5-min Rain = 0
KTAS 240110Z 14019G24KT 26/19 A2981 RMK A01 T02550188  RH  066%=      5-min Rain = 0
KTAS 240111Z 14018G24KT 26/19 A2982 RMK A01 T02550187  RH  066%=      5-min Rain = 0
KTAS 240112Z 14016KT 25/19 A2982 RMK A01 T02540188  RH  067%=      5-min Rain = 0
KTAS 240113Z 14019G25KT 25/19 A2981 RMK A01 T02540188  RH  067%=      5-min Rain = 0
KTAS 240114Z 14020KT 25/19 A2981 RMK A01 T02540188  RH  067%=      5-min Rain = 0
KTAS 240115Z 14020G26KT 25/19 A2982 RMK A01 T02540188  RH  067%=      5-min Rain = 0
KTAS 240116Z 14017KT 25/19 A2982 RMK A01 T02540188  RH  067%=      5-min Rain = 0
KTAS 240117Z 14017G22KT 25/19 A2982 RMK A01 T02530188  RH  067%=      5-min Rain = 0
KTAS 240118Z 14019G26KT 25/19 A2982 RMK A01 T02530188  RH  067%=      5-min Rain = 0
KTAS 240119Z 14020KT 25/19 A2982 RMK A01 T02540188  RH  067%=      5-min Rain = 0
KTAS 240120Z 14019KT 25/19 A2982 RMK A01 T02540188  RH  067%=      5-min Rain = 0
KTAS 240121Z 14019KT 25/19 A2982 RMK A01 T02530188  RH  067%=      5-min Rain = 0
KTAS 240122Z 14019KT 25/19 A2982 RMK A01 T02530188  RH  067%=      5-min Rain = 0
KTAS 240123Z 14020G25KT 25/19 A2982 RMK A01 T02530188  RH  067%=      5-min Rain = 0
KTAS 240124Z 14017KT 25/19 A2982 RMK A01 T02530188  RH  067%=      5-min Rain = 0
KTAS 240125Z 14020KT 25/19 A2982 RMK A01 T02520187  RH  067%=      5-min Rain = 0
KTAS 240126Z 14019G25KT 25/19 A2982 RMK A01 T02520188  RH  067%=      5-min Rain = 0
KTAS 240127Z 14019KT 25/19 A2982 RMK A01 T02520187  RH  067%=      5-min Rain = 0
KTAS 240128Z 14018KT 25/19 A2982 RMK A01 T02520187  RH  067%=      5-min Rain = 0
KTAS 240129Z 14016G21KT 25/19 A2983 RMK A01 T02510187  RH  068%=      5-min Rain = 0
KTAS 240130Z 14017KT 25/19 A2983 RMK A01 T02510187  RH  068%=      5-min Rain = 0
KTAS 240131Z 14016KT 25/19 A2983 RMK A01 T02500187  RH  068%=      5-min Rain = 0
KTAS 240132Z 14015KT 25/19 A2983 RMK A01 T02500187  RH  068%=      5-min Rain = 0
KTAS 240133Z 15015KT 25/19 A2983 RMK A01 T02500187  RH  068%=      5-min Rain = 0
KTAS 240134Z 14015KT 25/19 A2983 RMK A01 T02490188  RH  069%=      5-min Rain = 0
KTAS 240135Z 14017KT 25/19 A2983 RMK A01 T02490188  RH  068%=      5-min Rain = 0
KTAS 240136Z 14016KT 25/19 A2983 RMK A01 T02500188  RH  068%=      5-min Rain = 0
KTAS 240137Z 14016KT 25/19 A2984 RMK A01 T02500188  RH  068%=      5-min Rain = 0
KTAS 240138Z 14020KT 25/19 A2984 RMK A01 T02500187  RH  068%=      5-min Rain = 0
KTAS 240139Z 14019KT 25/19 A2984 RMK A01 T02510188  RH  068%=      5-min Rain = 0
KTAS 240140Z 14014G19KT 25/19 A2984 RMK A01 T02510188  RH  068%=      5-min Rain = 0
KTAS 240141Z 14017KT 25/19 A2984 RMK A01 T02500188  RH  068%=      5-min Rain = 0
KTAS 240142Z 14017KT 25/19 A2984 RMK A01 T02500188  RH  068%=      5-min Rain = 0
KTAS 240143Z 14016KT 25/19 A2984 RMK A01 T02500188  RH  068%=      5-min Rain = 0
KTAS 240144Z 14012KT 25/19 A2984 RMK A01 T02500188  RH  069%=      5-min Rain = 0
KTAS 240145Z 14015KT 25/19 A2984 RMK A01 T02490188  RH  069%=      5-min Rain = 0
KTAS 240146Z 14013KT 25/19 A2984 RMK A01 T02490188  RH  069%=      5-min Rain = 0
KTAS 240147Z 14013KT 25/19 A2984 RMK A01 T02490188  RH  069%=      5-min Rain = 0
KTAS 240148Z 14013KT 25/19 A2984 RMK A01 T02490188  RH  069%=      5-min Rain = 0
KTAS 240149Z 14013KT 25/19 A2984 RMK A01 T02490188  RH  069%=      5-min Rain = 0
KTAS 240150Z 14013KT 25/19 A2984 RMK A01 T02500188  RH  069%=      5-min Rain = 0
KTAS 240151Z 14011KT 25/19 A2984 RMK A01 T02500189  RH  069%=      5-min Rain = 0
KTAS 240152Z 14015KT 25/19 A2984 RMK A01 T02490188  RH  069%=      5-min Rain = 0
KTAS 240153Z 14014KT 25/19 A2985 RMK A01 T02500188  RH  069%=      5-min Rain = 0
KTAS 240154Z 14013KT 25/19 A2985 RMK A01 T02500188  RH  069%=      5-min Rain = 0
KTAS 240155Z 14014KT 25/19 A2985 RMK A01 T02500189  RH  069%=      5-min Rain = 0
KTAS 240156Z 14014KT 25/19 A2985 RMK A01 T02500188  RH  069%=      5-min Rain = 0
KTAS 240157Z 13013KT 25/19 A2985 RMK A01 T02500188  RH  069%=      5-min Rain = 0
KTAS 240158Z 14011KT 25/19 A2985 RMK A01 T02500189  RH  069%=      5-min Rain = 0
KTAS 240159Z 14011KT 25/19 A2985 RMK A01 T02490188  RH  069%=      5-min Rain = 0
KTAS 240200Z 14013KT 25/19 A2985 RMK A01 T02480188  RH  069%=      5-min Rain = 0
KTAS 240201Z 14014KT 25/19 A2985 RMK A01 T02480188  RH  069%=      5-min Rain = 0
KTAS 240202Z 14012KT 25/19 A2985 RMK A01 T02490189  RH  069%=      5-min Rain = 0
KTAS 240203Z 13011KT 25/19 A2985 RMK A01 T02490189  RH  069%=      5-min Rain = 0
KTAS 240204Z 13011KT 25/19 A2985 RMK A01 T02480188  RH  069%=      5-min Rain = 0
KTAS 240205Z 13011KT 25/19 A2985 RMK A01 T02480189  RH  069%=      5-min Rain = 0
KTAS 240206Z 13012KT 25/19 A2985 RMK A01 T02480189  RH  069%=      5-min Rain = 0
KTAS 240207Z 13011KT 25/19 A2985 RMK A01 T02490189  RH  070%=      5-min Rain = 0
KTAS 240208Z 13012KT 25/19 A2986 RMK A01 T02480189  RH  070%=      5-min Rain = 0
KTAS 240209Z 13011KT 25/19 A2986 RMK A01 T02480189  RH  070%=      5-min Rain = 0
KTAS 240210Z 13011KT 25/19 A2986 RMK A01 T02480190  RH  070%=      5-min Rain = 0
KTAS 240211Z 13010KT 25/19 A2986 RMK A01 T02490190  RH  070%=      5-min Rain = 0
KTAS 240212Z 13010KT 25/19 A2986 RMK A01 T02480190  RH  070%=      5-min Rain = 0
KTAS 240213Z 13010KT 25/19 A2986 RMK A01 T02480190  RH  070%=      5-min Rain = 0
KTAS 240214Z 13011KT 25/19 A2986 RMK A01 T02480190  RH  070%=      5-min Rain = 0
KTAS 240215Z 12009KT 25/19 A2986 RMK A01 T02480190  RH  070%=      5-min Rain = 0
KTAS 240216Z 12010KT 25/19 A2986 RMK A01 T02480190  RH  070%=      5-min Rain = 0
KTAS 240217Z 13009KT 25/19 A2986 RMK A01 T02480190  RH  070%=      5-min Rain = 0
KTAS 240218Z 12008KT 25/19 A2986 RMK A01 T02470190  RH  070%=      5-min Rain = 0
KTAS 240219Z 12007KT 25/19 A2986 RMK A01 T02470191  RH  071%=      5-min Rain = 0
KTAS 240220Z 13008KT 25/19 A2986 RMK A01 T02470191  RH  071%=      5-min Rain = 0
KTAS 240221Z 13007KT 25/19 A2986 RMK A01 T02460191  RH  071%=      5-min Rain = 0
KTAS 240222Z 13008KT 25/19 A2986 RMK A01 T02450190  RH  071%=      5-min Rain = 0
KTAS 240223Z 13007KT 25/19 A2987 RMK A01 T02450191  RH  071%=      5-min Rain = 0
KTAS 240224Z 13009KT 25/19 A2987 RMK A01 T02450190  RH  071%=      5-min Rain = 0
KTAS 240225Z 13009KT 25/19 A2987 RMK A01 T02450190  RH  071%=      5-min Rain = 0
KTAS 240226Z 12008KT 25/19 A2987 RMK A01 T02460190  RH  071%=      5-min Rain = 0
KTAS 240227Z 13008KT 25/19 A2987 RMK A01 T02460191  RH  071%=      5-min Rain = 0
KTAS 240228Z 13008KT 25/19 A2987 RMK A01 T02450190  RH  071%=      5-min Rain = 0
KTAS 240229Z 13009KT 25/19 A2987 RMK A01 T02450190  RH  071%=      5-min Rain = 0
KTAS 240230Z 13007KT 25/19 A2987 RMK A01 T02450190  RH  071%=      5-min Rain = 0
KTAS 240231Z 13008KT 25/19 A2987 RMK A01 T02450190  RH  071%=      5-min Rain = 0
KTAS 240232Z 13011KT 25/19 A2987 RMK A01 T02450190  RH  071%=      5-min Rain = 0
KTAS 240233Z 13009KT 25/19 A2987 RMK A01 T02460190  RH  071%=      5-min Rain = 0
KTAS 240234Z 13008KT 25/19 A2987 RMK A01 T02460190  RH  071%=      5-min Rain = 0
KTAS 240235Z 13008KT 25/19 A2987 RMK A01 T02460190  RH  071%=      5-min Rain = 0
KTAS 240236Z 13008KT 25/19 A2987 RMK A01 T02450190  RH  071%=      5-min Rain = 0
KTAS 240237Z 13008KT 25/19 A2987 RMK A01 T02450190  RH  071%=      5-min Rain = 0
KTAS 240238Z 13007KT 25/19 A2987 RMK A01 T02450190  RH  071%=      5-min Rain = 0
KTAS 240239Z 13007KT 25/19 A2987 RMK A01 T02450191  RH  072%=      5-min Rain = 0
KTAS 240240Z 13007KT 25/19 A2988 RMK A01 T02450190  RH  072%=      5-min Rain = 0
KTAS 240241Z 14006KT 25/19 A2988 RMK A01 T02450191  RH  072%=      5-min Rain = 0
KTAS 240242Z 13007KT 24/19 A2988 RMK A01 T02440190  RH  072%=      5-min Rain = 0
KTAS 240243Z 14007KT 24/19 A2988 RMK A01 T02440190  RH  072%=      5-min Rain = 0
KTAS 240244Z 13007KT 24/19 A2988 RMK A01 T02440190  RH  072%=      5-min Rain = 0
KTAS 240245Z 14009KT 25/19 A2988 RMK A01 T02450190  RH  071%=      5-min Rain = 0
KTAS 240246Z 12007KT 25/19 A2988 RMK A01 T02450190  RH  071%=      5-min Rain = 0
KTAS 240247Z 12006KT 25/19 A2988 RMK A01 T02450190  RH  072%=      5-min Rain = 0
KTAS 240248Z 12007KT 24/19 A2988 RMK A01 T02440190  RH  072%=      5-min Rain = 0
KTAS 240249Z 12007KT 24/19 A2988 RMK A01 T02440190  RH  072%=      5-min Rain = 0
KTAS 240250Z 12006KT 24/19 A2988 RMK A01 T02440191  RH  072%=      5-min Rain = 0
KTAS 240251Z 12007KT 24/19 A2988 RMK A01 T02430191  RH  072%=      5-min Rain = 0
KTAS 240252Z 13009KT 24/19 A2988 RMK A01 T02430190  RH  072%=      5-min Rain = 0
KTAS 240253Z 12007KT 24/19 A2988 RMK A01 T02430190  RH  072%=      5-min Rain = 0
KTAS 240254Z 12008KT 24/19 A2988 RMK A01 T02430191  RH  073%=      5-min Rain = 0
KTAS 240255Z 13007KT 24/19 A2988 RMK A01 T02430190  RH  073%=      5-min Rain = 0
KTAS 240256Z 12006KT 24/19 A2988 RMK A01 T02430191  RH  073%=      5-min Rain = 0
KTAS 240257Z 12007KT 24/19 A2988 RMK A01 T02430191  RH  073%=      5-min Rain = 0
KTAS 240258Z 12008KT 24/19 A2988 RMK A01 T02430190  RH  072%=      5-min Rain = 0
KTAS 240259Z 12006KT 24/19 A2988 RMK A01 T02430190  RH  072%=      5-min Rain = 0
KTAS 240300Z 12006KT 24/19 A2988 RMK A01 T02430190  RH  072%=      5-min Rain = 0
KTAS 240301Z 13007KT 24/19 A2988 RMK A01 T02430190  RH  073%=      5-min Rain = 0
KTAS 240302Z 13007KT 24/19 A2988 RMK A01 T02430190  RH  072%=      5-min Rain = 0
KTAS 240303Z 13007KT 24/19 A2988 RMK A01 T02430190  RH  072%=      5-min Rain = 0
KTAS 240304Z 12006KT 24/19 A2988 RMK A01 T02430190  RH  072%=      5-min Rain = 0
KTAS 240305Z 12005KT 24/19 A2989 RMK A01 T02430190  RH  072%=      5-min Rain = 0
KTAS 240306Z 13007KT 24/19 A2989 RMK A01 T02430190  RH  072%=      5-min Rain = 0
KTAS 240307Z 13007KT 24/19 A2989 RMK A01 T02430190  RH  072%=      5-min Rain = 0
KTAS 240308Z 14008KT 24/19 A2989 RMK A01 T02430190  RH  072%=      5-min Rain = 0
KTAS 240309Z 14008KT 24/19 A2989 RMK A01 T02430190  RH  072%=      5-min Rain = 0
KTAS 240310Z 13007KT 24/19 A2989 RMK A01 T02430189  RH  072%=      5-min Rain = 0
KTAS 240311Z 13008KT 24/19 A2989 RMK A01 T02430189  RH  072%=      5-min Rain = 0
KTAS 240312Z 14007KT 24/19 A2989 RMK A01 T02440189  RH  071%=      5-min Rain = 0
KTAS 240313Z 13007KT 24/19 A2989 RMK A01 T02440189  RH  072%=      5-min Rain = 0
KTAS 240314Z 14009KT 24/19 A2989 RMK A01 T02440189  RH  071%=      5-min Rain = 0
KTAS 240315Z 14007KT 25/19 A299 RMK A01 T02450189  RH  071%=      5-min Rain = 0
KTAS 240316Z 15008KT 25/19 A299 RMK A01 T02450189  RH  071%=      5-min Rain = 0
KTAS 240317Z 14007KT 25/19 A299 RMK A01 T02450189  RH  071%=      5-min Rain = 0
KTAS 240318Z 14009KT 24/19 A299 RMK A01 T02440189  RH  071%=      5-min Rain = 0
KTAS 240319Z 14008KT 24/19 A299 RMK A01 T02440189  RH  071%=      5-min Rain = 0
KTAS 240320Z 14009KT 25/19 A299 RMK A01 T02450189  RH  071%=      5-min Rain = 0
KTAS 240321Z 13008KT 25/19 A299 RMK A01 T02450189  RH  071%=      5-min Rain = 0
KTAS 240322Z 13008KT 25/19 A299 RMK A01 T02450189  RH  071%=      5-min Rain = 0
KTAS 240323Z 13007KT 25/19 A299 RMK A01 T02450189  RH  071%=      5-min Rain = 0
KTAS 240324Z 13007KT 24/19 A299 RMK A01 T02440190  RH  072%=      5-min Rain = 0
KTAS 240325Z 14009KT 24/19 A299 RMK A01 T02440189  RH  072%=      5-min Rain = 0
KTAS 240326Z 13008KT 24/19 A299 RMK A01 T02440189  RH  071%=      5-min Rain = 0
KTAS 240327Z 14007KT 24/19 A299 RMK A01 T02440189  RH  071%=      5-min Rain = 0
KTAS 240328Z 13008KT 24/19 A299 RMK A01 T02440189  RH  072%=      5-min Rain = 0
KTAS 240329Z 13009KT 24/19 A299 RMK A01 T02430188  RH  071%=      5-min Rain = 0
KTAS 240330Z 13010KT 24/19 A299 RMK A01 T02440188  RH  071%=      5-min Rain = 0
KTAS 240331Z 13009KT 24/19 A299 RMK A01 T02440188  RH  071%=      5-min Rain = 0
KTAS 240332Z 13008KT 24/19 A299 RMK A01 T02440189  RH  071%=      5-min Rain = 0
KTAS 240333Z 13006KT 24/19 A299 RMK A01 T02440189  RH  072%=      5-min Rain = 0
KTAS 240334Z 13006KT 24/19 A299 RMK A01 T02430189  RH  072%=      5-min Rain = 0
KTAS 240335Z 13007KT 24/19 A299 RMK A01 T02430189  RH  072%=      5-min Rain = 0
KTAS 240336Z 14007KT 24/19 A299 RMK A01 T02430189  RH  072%=      5-min Rain = 0
KTAS 240337Z 13005KT 24/19 A299 RMK A01 T02430189  RH  072%=      5-min Rain = 0
KTAS 240338Z 14007KT 24/19 A299 RMK A01 T02430190  RH  072%=      5-min Rain = 0
KTAS 240339Z 14007KT 24/19 A2991 RMK A01 T02420189  RH  072%=      5-min Rain = 0
KTAS 240340Z 13006KT 24/19 A2991 RMK A01 T02430189  RH  072%=      5-min Rain = 0
KTAS 240341Z 13008KT 24/19 A2991 RMK A01 T02430189  RH  072%=      5-min Rain = 0
KTAS 240342Z 13008KT 24/19 A299 RMK A01 T02420188  RH  072%=      5-min Rain = 0
KTAS 240343Z 13007KT 24/19 A299 RMK A01 T02430188  RH  072%=      5-min Rain = 0
KTAS 240344Z 14008KT 24/19 A299 RMK A01 T02430189  RH  072%=      5-min Rain = 0
KTAS 240345Z 13008KT 24/19 A299 RMK A01 T02430189  RH  072%=      5-min Rain = 0
KTAS 240346Z 13008KT 24/19 A2991 RMK A01 T02430189  RH  072%=      5-min Rain = 0
KTAS 240347Z 13008KT 24/19 A2991 RMK A01 T02420188  RH  072%=      5-min Rain = 0
KTAS 240348Z 13008KT 24/19 A2991 RMK A01 T02420188  RH  072%=      5-min Rain = 0
KTAS 240349Z 14008KT 24/19 A2991 RMK A01 T02420189  RH  072%=      5-min Rain = 0
KTAS 240350Z 13009KT 24/19 A299 RMK A01 T02420189  RH  072%=      5-min Rain = 0
KTAS 240351Z 13007KT 24/19 A299 RMK A01 T02420188  RH  072%=      5-min Rain = 0
KTAS 240352Z 14007KT 24/19 A299 RMK A01 T02420189  RH  072%=      5-min Rain = 0
KTAS 240353Z 13006KT 24/19 A2991 RMK A01 T02420189  RH  072%=      5-min Rain = 0
KTAS 240354Z 14008KT 24/19 A2991 RMK A01 T02410189  RH  072%=      5-min Rain = 0
KTAS 240355Z 13008KT 24/19 A2991 RMK A01 T02410189  RH  072%=      5-min Rain = 0
KTAS 240356Z 14009KT 24/19 A2991 RMK A01 T02410188  RH  072%=      5-min Rain = 0
KTAS 240357Z 14008KT 24/19 A2991 RMK A01 T02410188  RH  072%=      5-min Rain = 0
KTAS 240358Z 14008KT 24/19 A2991 RMK A01 T02410188  RH  072%=      5-min Rain = 0
KTAS 240359Z 13009KT 24/19 A2991 RMK A01 T02410188  RH  072%=      5-min Rain = 0
KTAS 240400Z 13008KT 24/19 A2991 RMK A01 T02420188  RH  072%=      5-min Rain = 0
KTAS 240401Z 14008KT 24/19 A2991 RMK A01 T02420188  RH  072%=      5-min Rain = 0
KTAS 240402Z 14008KT 24/19 A2991 RMK A01 T02420188  RH  072%=      5-min Rain = 0
KTAS 240403Z 14008KT 24/19 A2991 RMK A01 T02420188  RH  072%=      5-min Rain = 0
KTAS 240404Z 14006KT 24/19 A2991 RMK A01 T02420188  RH  072%=      5-min Rain = 0
KTAS 240405Z 14008KT 24/19 A2991 RMK A01 T02410188  RH  072%=      5-min Rain = 0
KTAS 240406Z 14008KT 24/19 A2991 RMK A01 T02410188  RH  072%=      5-min Rain = 0
KTAS 240407Z 13007KT 24/19 A2991 RMK A01 T02410188  RH  072%=      5-min Rain = 0
KTAS 240408Z 14007KT 24/19 A2991 RMK A01 T02410188  RH  072%=      5-min Rain = 0
KTAS 240409Z 13007KT 24/19 A2991 RMK A01 T02410188  RH  073%=      5-min Rain = 0
KTAS 240410Z 13006KT 24/19 A2991 RMK A01 T02400188  RH  073%=      5-min Rain = 0
KTAS 240411Z 12006KT 24/19 A2991 RMK A01 T02400188  RH  073%=      5-min Rain = 0
KTAS 240412Z 12008KT 24/19 A2991 RMK A01 T02390187  RH  073%=      5-min Rain = 0
KTAS 240413Z 13007KT 24/19 A2991 RMK A01 T02400187  RH  072%=      5-min Rain = 0
KTAS 240414Z 13006KT 24/19 A2991 RMK A01 T02400188  RH  072%=      5-min Rain = 0
KTAS 240415Z 12005KT 24/19 A2991 RMK A01 T02400188  RH  073%=      5-min Rain = 0
KTAS 240416Z 12006KT 24/19 A2991 RMK A01 T02390188  RH  073%=      5-min Rain = 0
KTAS 240417Z 12006KT 24/19 A2991 RMK A01 T02390188  RH  073%=      5-min Rain = 0
KTAS 240418Z 12006KT 24/19 A2991 RMK A01 T02390188  RH  073%=      5-min Rain = 0
KTAS 240419Z 12006KT 24/19 A2991 RMK A01 T02380188  RH  073%=      5-min Rain = 0
KTAS 240420Z 12006KT 24/19 A2991 RMK A01 T02380188  RH  073%=      5-min Rain = 0
KTAS 240421Z 12005KT 24/19 A2991 RMK A01 T02380188  RH  074%=      5-min Rain = 0
KTAS 240422Z 12005KT 24/19 A2991 RMK A01 T02370188  RH  074%=      5-min Rain = 0
KTAS 240423Z 13006KT 24/19 A2992 RMK A01 T02370188  RH  074%=      5-min Rain = 0
KTAS 240424Z 12007KT 24/19 A2992 RMK A01 T02370187  RH  074%=      5-min Rain = 0
KTAS 240425Z 12007KT 24/19 A2992 RMK A01 T02380187  RH  073%=      5-min Rain = 0
KTAS 240426Z 13006KT 24/19 A2992 RMK A01 T02380187  RH  073%=      5-min Rain = 0
KTAS 240427Z 12005KT 24/19 A2992 RMK A01 T02380188  RH  073%=      5-min Rain = 0
KTAS 240428Z 12007KT 24/19 A2992 RMK A01 T02370188  RH  074%=      5-min Rain = 0
KTAS 240429Z 12008KT 24/19 A2992 RMK A01 T02370187  RH  073%=      5-min Rain = 0
KTAS 240430Z 12006KT 24/19 A2992 RMK A01 T02380187  RH  073%=      5-min Rain = 0
KTAS 240431Z 11006KT 24/19 A2992 RMK A01 T02380188  RH  074%=      5-min Rain = 0
KTAS 240432Z 12006KT 24/19 A2992 RMK A01 T02370188  RH  074%=      5-min Rain = 0
KTAS 240433Z 12006KT 24/19 A2992 RMK A01 T02370188  RH  074%=      5-min Rain = 0
KTAS 240434Z 12006KT 24/19 A2992 RMK A01 T02370187  RH  073%=      5-min Rain = 0
KTAS 240435Z 12006KT 24/19 A2992 RMK A01 T02380187  RH  073%=      5-min Rain = 0
KTAS 240436Z 12006KT 24/19 A2992 RMK A01 T02380187  RH  073%=      5-min Rain = 0
KTAS 240437Z 12005KT 24/19 A2992 RMK A01 T02380188  RH  073%=      5-min Rain = 0
KTAS 240438Z 12005KT 24/19 A2992 RMK A01 T02370188  RH  074%=      5-min Rain = 0
KTAS 240439Z 12007KT 24/19 A2992 RMK A01 T02370188  RH  074%=      5-min Rain = 0
KTAS 240440Z 12006KT 24/19 A2992 RMK A01 T02370187  RH  074%=      5-min Rain = 0
KTAS 240441Z 12006KT 24/19 A2993 RMK A01 T02370187  RH  073%=      5-min Rain = 0
KTAS 240442Z 11004KT 24/19 A2993 RMK A01 T02370188  RH  074%=      5-min Rain = 0
KTAS 240443Z 12005KT 24/19 A2993 RMK A01 T02370188  RH  074%=      5-min Rain = 0
KTAS 240444Z 12004KT 24/19 A2992 RMK A01 T02370188  RH  074%=      5-min Rain = 0
KTAS 240445Z 12004KT 24/19 A2992 RMK A01 T02360188  RH  074%=      5-min Rain = 0
KTAS 240446Z 11004KT 24/19 A2992 RMK A01 T02360188  RH  074%=      5-min Rain = 0
KTAS 240447Z 12004KT 24/19 A2993 RMK A01 T02360188  RH  075%=      5-min Rain = 0
KTAS 240448Z 12004KT 24/19 A2993 RMK A01 T02360188  RH  075%=      5-min Rain = 0
KTAS 240449Z 12004KT 24/19 A2993 RMK A01 T02360188  RH  075%=      5-min Rain = 0
KTAS 240450Z 12005KT 24/19 A2993 RMK A01 T02350188  RH  075%=      5-min Rain = 0
KTAS 240451Z 12004KT 24/19 A2992 RMK A01 T02350188  RH  075%=      5-min Rain = 0
KTAS 240452Z 12004KT 24/19 A2992 RMK A01 T02350188  RH  075%=      5-min Rain = 0
KTAS 240453Z 12005KT 24/19 A2992 RMK A01 T02350188  RH  075%=      5-min Rain = 0
KTAS 240454Z 12005KT 24/19 A2992 RMK A01 T02350188  RH  075%=      5-min Rain = 0
KTAS 240455Z 12005KT 24/19 A2992 RMK A01 T02350188  RH  075%=      5-min Rain = 0
KTAS 240456Z 12005KT 24/19 A2992 RMK A01 T02350188  RH  075%=      5-min Rain = 0
KTAS 240457Z 12006KT 24/19 A2992 RMK A01 T02350188  RH  075%=      5-min Rain = 0
KTAS 240458Z 13006KT 24/19 A2992 RMK A01 T02350188  RH  075%=      5-min Rain = 0
KTAS 240459Z 13005KT 24/19 A2992 RMK A01 T02350188  RH  075%=      5-min Rain = 0

Page generated in 0.1019 seconds.